<?xml version='1.0' encoding='UTF-8'?>
<gpx version="1.1" creator="https://www.komoot.de" xmlns="http://www.topografix.com/GPX/1/1" xmlns:xsi="http://www.w3.org/2001/XMLSchema-instance" xsi:schemaLocation="http://www.topografix.com/GPX/1/1 http://www.topografix.com/GPX/1/1/gpx.xsd">
  <metadata>
    <name>GPX Download: Stromschnellen in der Hase – Hase-Radweg Runde von Lohne (Oldb)</name>
    <author>
      <link href="https://www.komoot.de">
        <text>komoot</text>
        <type>text/html</type>
      </link>
    </author>
  </metadata>
  <wpt lat="52.689916" lon="7.986129">
    <name>Hase-Uferweg</name>
    <sym>Flag, Blue</sym>
  </wpt>
  <wpt lat="52.680644" lon="7.981244">
    <name>Forstgarten</name>
    <sym>Flag, Blue</sym>
  </wpt>
  <wpt lat="52.667316" lon="7.980726">
    <name>Stromschnellen in der Hase</name>
    <sym>Flag, Blue</sym>
  </wpt>
  <wpt lat="52.667194" lon="7.981397">
    <name>Überfallhase (Wehr der Hase) bei Quakenbrück</name>
    <sym>Flag, Blue</sym>
  </wpt>
  <wpt lat="52.649830" lon="8.002273">
    <name>Hase-Radweg</name>
    <sym>Flag, Blue</sym>
  </wpt>
  <wpt lat="52.650380" lon="8.001928">
    <name>Hase-Radweg</name>
    <sym>Flag, Blue</sym>
  </wpt>
  <wpt lat="52.652752" lon="8.208926">
    <name>Kastanienallee</name>
    <sym>Flag, Blue</sym>
  </wpt>
  <wpt lat="52.654325" lon="8.214546">
    <name>Hopener Mühlenbach Trail</name>
    <sym>Flag, Blue</sym>
  </wpt>
  <wpt lat="52.654338" lon="8.215413">
    <name>Hopener Wald</name>
    <sym>Flag, Blue</sym>
  </wpt>
  <wpt lat="52.655962" lon="8.221153">
    <name>Burgwald</name>
    <sym>Flag, Blue</sym>
  </wpt>
  <trk>
    <name>GPX Download: Stromschnellen in der Hase – Hase-Radweg Runde von Lohne (Oldb)</name>
    <trkseg>
      <trkpt lat="52.671256" lon="8.219017">
        <ele>31.386281</ele>
        <time>2026-03-20T11:15:59.868Z</time>
      </trkpt>
      <trkpt lat="52.671333" lon="8.219059">
        <ele>31.386281</ele>
        <time>2026-03-20T11:16:02.157Z</time>
      </trkpt>
      <trkpt lat="52.671399" lon="8.219092">
        <ele>31.386281</ele>
        <time>2026-03-20T11:16:04.077Z</time>
      </trkpt>
      <trkpt lat="52.671491" lon="8.218634">
        <ele>31.386281</ele>
        <time>2026-03-20T11:16:10.539Z</time>
      </trkpt>
      <trkpt lat="52.671407" lon="8.218604">
        <ele>31.386281</ele>
        <time>2026-03-20T11:16:12.462Z</time>
      </trkpt>
      <trkpt lat="52.671065" lon="8.218325">
        <ele>31.385259</ele>
        <time>2026-03-20T11:16:20.955Z</time>
      </trkpt>
      <trkpt lat="52.670933" lon="8.218209">
        <ele>31.371130</ele>
        <time>2026-03-20T11:16:24.307Z</time>
      </trkpt>
      <trkpt lat="52.670388" lon="8.217734">
        <ele>31.312899</ele>
        <time>2026-03-20T11:16:38.088Z</time>
      </trkpt>
      <trkpt lat="52.670018" lon="8.217422">
        <ele>31.273643</ele>
        <time>2026-03-20T11:16:47.449Z</time>
      </trkpt>
      <trkpt lat="52.669598" lon="8.217052">
        <ele>31.228662</ele>
        <time>2026-03-20T11:16:58.220Z</time>
      </trkpt>
      <trkpt lat="52.669324" lon="8.216804">
        <ele>31.249755</ele>
        <time>2026-03-20T11:17:05.413Z</time>
      </trkpt>
      <trkpt lat="52.669074" lon="8.216583">
        <ele>31.301642</ele>
        <time>2026-03-20T11:17:11.881Z</time>
      </trkpt>
      <trkpt lat="52.668512" lon="8.216089">
        <ele>31.418137</ele>
        <time>2026-03-20T11:17:26.570Z</time>
      </trkpt>
      <trkpt lat="52.668408" lon="8.215999">
        <ele>31.439621</ele>
        <time>2026-03-20T11:17:29.281Z</time>
      </trkpt>
      <trkpt lat="52.667789" lon="8.215462">
        <ele>31.567180</ele>
        <time>2026-03-20T11:17:45.607Z</time>
      </trkpt>
      <trkpt lat="52.667114" lon="8.214843">
        <ele>31.706019</ele>
        <time>2026-03-20T11:18:03.050Z</time>
      </trkpt>
      <trkpt lat="52.665715" lon="8.213612">
        <ele>31.805684</ele>
        <time>2026-03-20T11:18:39.402Z</time>
      </trkpt>
      <trkpt lat="52.665183" lon="8.213187">
        <ele>31.750950</ele>
        <time>2026-03-20T11:18:52.534Z</time>
      </trkpt>
      <trkpt lat="52.664949" lon="8.213006">
        <ele>31.727018</ele>
        <time>2026-03-20T11:18:58.096Z</time>
      </trkpt>
      <trkpt lat="52.663909" lon="8.212103">
        <ele>31.106443</ele>
        <time>2026-03-20T11:19:22.034Z</time>
      </trkpt>
      <trkpt lat="52.663830" lon="8.212042">
        <ele>31.049149</ele>
        <time>2026-03-20T11:19:23.759Z</time>
      </trkpt>
      <trkpt lat="52.663756" lon="8.211989">
        <ele>30.996160</ele>
        <time>2026-03-20T11:19:25.416Z</time>
      </trkpt>
      <trkpt lat="52.663395" lon="8.211760">
        <ele>30.742120</ele>
        <time>2026-03-20T11:19:32.894Z</time>
      </trkpt>
      <trkpt lat="52.663178" lon="8.211652">
        <ele>30.593247</ele>
        <time>2026-03-20T11:19:37.280Z</time>
      </trkpt>
      <trkpt lat="52.662801" lon="8.211590">
        <ele>30.503917</ele>
        <time>2026-03-20T11:19:44.717Z</time>
      </trkpt>
      <trkpt lat="52.662492" lon="8.211533">
        <ele>30.484314</ele>
        <time>2026-03-20T11:19:51.203Z</time>
      </trkpt>
      <trkpt lat="52.662262" lon="8.211545">
        <ele>30.469805</ele>
        <time>2026-03-20T11:19:56.545Z</time>
      </trkpt>
      <trkpt lat="52.662245" lon="8.211385">
        <ele>30.463594</ele>
        <time>2026-03-20T11:19:58.859Z</time>
      </trkpt>
      <trkpt lat="52.662210" lon="8.211368">
        <ele>30.461294</ele>
        <time>2026-03-20T11:19:59.711Z</time>
      </trkpt>
      <trkpt lat="52.662180" lon="8.211274">
        <ele>30.457232</ele>
        <time>2026-03-20T11:20:01.170Z</time>
      </trkpt>
      <trkpt lat="52.662083" lon="8.210320">
        <ele>30.420242</ele>
        <time>2026-03-20T11:20:14.596Z</time>
      </trkpt>
      <trkpt lat="52.662095" lon="8.210166">
        <ele>30.414305</ele>
        <time>2026-03-20T11:20:16.867Z</time>
      </trkpt>
      <trkpt lat="52.662074" lon="8.209957">
        <ele>30.410451</ele>
        <time>2026-03-20T11:20:19.915Z</time>
      </trkpt>
      <trkpt lat="52.662022" lon="8.209749">
        <ele>30.431077</ele>
        <time>2026-03-20T11:20:23.217Z</time>
      </trkpt>
      <trkpt lat="52.661893" lon="8.208459">
        <ele>30.550943</ele>
        <time>2026-03-20T11:20:42.452Z</time>
      </trkpt>
      <trkpt lat="52.661907" lon="8.208309">
        <ele>30.564857</ele>
        <time>2026-03-20T11:20:44.522Z</time>
      </trkpt>
      <trkpt lat="52.661713" lon="8.206207">
        <ele>30.593620</ele>
        <time>2026-03-20T11:21:12.350Z</time>
      </trkpt>
      <trkpt lat="52.661492" lon="8.203859">
        <ele>30.425111</ele>
        <time>2026-03-20T11:21:43.291Z</time>
      </trkpt>
      <trkpt lat="52.661456" lon="8.203674">
        <ele>30.449015</ele>
        <time>2026-03-20T11:21:45.980Z</time>
      </trkpt>
      <trkpt lat="52.661312" lon="8.202220">
        <ele>30.630278</ele>
        <time>2026-03-20T11:22:06.630Z</time>
      </trkpt>
      <trkpt lat="52.661180" lon="8.201364">
        <ele>30.738947</ele>
        <time>2026-03-20T11:22:19.476Z</time>
      </trkpt>
      <trkpt lat="52.661008" lon="8.200733">
        <ele>30.787464</ele>
        <time>2026-03-20T11:22:29.269Z</time>
      </trkpt>
      <trkpt lat="52.660574" lon="8.199431">
        <ele>30.874053</ele>
        <time>2026-03-20T11:22:49.583Z</time>
      </trkpt>
      <trkpt lat="52.660493" lon="8.199088">
        <ele>30.895506</ele>
        <time>2026-03-20T11:22:54.640Z</time>
      </trkpt>
      <trkpt lat="52.660361" lon="8.197870">
        <ele>30.731925</ele>
        <time>2026-03-20T11:23:11.136Z</time>
      </trkpt>
      <trkpt lat="52.660392" lon="8.197288">
        <ele>30.566635</ele>
        <time>2026-03-20T11:23:18.515Z</time>
      </trkpt>
      <trkpt lat="52.660319" lon="8.197207">
        <ele>30.525591</ele>
        <time>2026-03-20T11:23:20.305Z</time>
      </trkpt>
      <trkpt lat="52.660318" lon="8.197112">
        <ele>30.498710</ele>
        <time>2026-03-20T11:23:21.478Z</time>
      </trkpt>
      <trkpt lat="52.660268" lon="8.196073">
        <ele>30.203837</ele>
        <time>2026-03-20T11:23:34.062Z</time>
      </trkpt>
      <trkpt lat="52.660091" lon="8.193442">
        <ele>29.555662</ele>
        <time>2026-03-20T11:24:06.778Z</time>
      </trkpt>
      <trkpt lat="52.660187" lon="8.193153">
        <ele>29.477265</ele>
        <time>2026-03-20T11:24:11.231Z</time>
      </trkpt>
      <trkpt lat="52.660190" lon="8.193042">
        <ele>29.450829</ele>
        <time>2026-03-20T11:24:12.743Z</time>
      </trkpt>
      <trkpt lat="52.660177" lon="8.192958">
        <ele>29.430204</ele>
        <time>2026-03-20T11:24:13.914Z</time>
      </trkpt>
      <trkpt lat="52.660158" lon="8.192884">
        <ele>29.411085</ele>
        <time>2026-03-20T11:24:15.007Z</time>
      </trkpt>
      <trkpt lat="52.660021" lon="8.192676">
        <ele>29.391911</ele>
        <time>2026-03-20T11:24:19.208Z</time>
      </trkpt>
      <trkpt lat="52.659880" lon="8.191748">
        <ele>29.437908</ele>
        <time>2026-03-20T11:24:32.386Z</time>
      </trkpt>
      <trkpt lat="52.659582" lon="8.190266">
        <ele>29.512976</ele>
        <time>2026-03-20T11:24:53.708Z</time>
      </trkpt>
      <trkpt lat="52.659484" lon="8.189525">
        <ele>29.628571</ele>
        <time>2026-03-20T11:25:04.076Z</time>
      </trkpt>
      <trkpt lat="52.659428" lon="8.188353">
        <ele>29.871373</ele>
        <time>2026-03-20T11:25:20.956Z</time>
      </trkpt>
      <trkpt lat="52.659510" lon="8.187281">
        <ele>30.094526</ele>
        <time>2026-03-20T11:25:36.888Z</time>
      </trkpt>
      <trkpt lat="52.659643" lon="8.185594">
        <ele>30.278223</ele>
        <time>2026-03-20T11:26:01.316Z</time>
      </trkpt>
      <trkpt lat="52.659917" lon="8.182073">
        <ele>29.888616</ele>
        <time>2026-03-20T11:26:48.439Z</time>
      </trkpt>
      <trkpt lat="52.659943" lon="8.181215">
        <ele>29.669970</ele>
        <time>2026-03-20T11:26:58.446Z</time>
      </trkpt>
      <trkpt lat="52.659959" lon="8.180705">
        <ele>29.359241</ele>
        <time>2026-03-20T11:27:04.322Z</time>
      </trkpt>
      <trkpt lat="52.659986" lon="8.180407">
        <ele>29.169140</ele>
        <time>2026-03-20T11:27:07.742Z</time>
      </trkpt>
      <trkpt lat="52.659976" lon="8.179640">
        <ele>28.685112</ele>
        <time>2026-03-20T11:27:16.227Z</time>
      </trkpt>
      <trkpt lat="52.660026" lon="8.179428">
        <ele>28.541601</ele>
        <time>2026-03-20T11:27:18.730Z</time>
      </trkpt>
      <trkpt lat="52.659988" lon="8.179372">
        <ele>28.488585</ele>
        <time>2026-03-20T11:27:19.659Z</time>
      </trkpt>
      <trkpt lat="52.659967" lon="8.179319">
        <ele>28.448644</ele>
        <time>2026-03-20T11:27:20.356Z</time>
      </trkpt>
      <trkpt lat="52.659962" lon="8.179225">
        <ele>28.389110</ele>
        <time>2026-03-20T11:27:21.409Z</time>
      </trkpt>
      <trkpt lat="52.659957" lon="8.179083">
        <ele>28.299368</ele>
        <time>2026-03-20T11:27:23.091Z</time>
      </trkpt>
      <trkpt lat="52.659912" lon="8.178791">
        <ele>28.109286</ele>
        <time>2026-03-20T11:27:26.823Z</time>
      </trkpt>
      <trkpt lat="52.659860" lon="8.177869">
        <ele>27.821400</ele>
        <time>2026-03-20T11:27:38.745Z</time>
      </trkpt>
      <trkpt lat="52.659820" lon="8.177542">
        <ele>27.845208</ele>
        <time>2026-03-20T11:27:43.110Z</time>
      </trkpt>
      <trkpt lat="52.659778" lon="8.177265">
        <ele>27.865587</ele>
        <time>2026-03-20T11:27:46.958Z</time>
      </trkpt>
      <trkpt lat="52.659659" lon="8.176641">
        <ele>27.912274</ele>
        <time>2026-03-20T11:27:56.088Z</time>
      </trkpt>
      <trkpt lat="52.659507" lon="8.176079">
        <ele>27.956193</ele>
        <time>2026-03-20T11:28:05.146Z</time>
      </trkpt>
      <trkpt lat="52.659369" lon="8.175730">
        <ele>27.985928</ele>
        <time>2026-03-20T11:28:11.386Z</time>
      </trkpt>
      <trkpt lat="52.659232" lon="8.175381">
        <ele>27.994936</ele>
        <time>2026-03-20T11:28:17.457Z</time>
      </trkpt>
      <trkpt lat="52.659008" lon="8.174951">
        <ele>27.969393</ele>
        <time>2026-03-20T11:28:25.417Z</time>
      </trkpt>
      <trkpt lat="52.658360" lon="8.173736">
        <ele>27.896485</ele>
        <time>2026-03-20T11:28:46.576Z</time>
      </trkpt>
      <trkpt lat="52.658239" lon="8.173460">
        <ele>27.881139</ele>
        <time>2026-03-20T11:28:50.883Z</time>
      </trkpt>
      <trkpt lat="52.657961" lon="8.172586">
        <ele>27.787573</ele>
        <time>2026-03-20T11:29:03.392Z</time>
      </trkpt>
      <trkpt lat="52.657780" lon="8.171672">
        <ele>27.679074</ele>
        <time>2026-03-20T11:29:15.665Z</time>
      </trkpt>
      <trkpt lat="52.657662" lon="8.170707">
        <ele>27.567985</ele>
        <time>2026-03-20T11:29:28.605Z</time>
      </trkpt>
      <trkpt lat="52.657649" lon="8.170524">
        <ele>27.547193</ele>
        <time>2026-03-20T11:29:31.100Z</time>
      </trkpt>
      <trkpt lat="52.657666" lon="8.170317">
        <ele>27.556928</ele>
        <time>2026-03-20T11:29:33.940Z</time>
      </trkpt>
      <trkpt lat="52.657627" lon="8.170279">
        <ele>27.573872</ele>
        <time>2026-03-20T11:29:34.957Z</time>
      </trkpt>
      <trkpt lat="52.657575" lon="8.170240">
        <ele>27.595240</ele>
        <time>2026-03-20T11:29:36.251Z</time>
      </trkpt>
      <trkpt lat="52.657563" lon="8.170156">
        <ele>27.614820</ele>
        <time>2026-03-20T11:29:37.451Z</time>
      </trkpt>
      <trkpt lat="52.657541" lon="8.170032">
        <ele>27.644132</ele>
        <time>2026-03-20T11:29:39.244Z</time>
      </trkpt>
      <trkpt lat="52.657220" lon="8.168072">
        <ele>28.104742</ele>
        <time>2026-03-20T11:30:08.304Z</time>
      </trkpt>
      <trkpt lat="52.657098" lon="8.166785">
        <ele>28.734523</ele>
        <time>2026-03-20T11:30:28.434Z</time>
      </trkpt>
      <trkpt lat="52.657052" lon="8.165594">
        <ele>29.474572</ele>
        <time>2026-03-20T11:30:47.676Z</time>
      </trkpt>
      <trkpt lat="52.657082" lon="8.164021">
        <ele>30.194204</ele>
        <time>2026-03-20T11:31:13.990Z</time>
      </trkpt>
      <trkpt lat="52.657121" lon="8.163364">
        <ele>30.344067</ele>
        <time>2026-03-20T11:31:24.270Z</time>
      </trkpt>
      <trkpt lat="52.657220" lon="8.162597">
        <ele>30.522089</ele>
        <time>2026-03-20T11:31:35.493Z</time>
      </trkpt>
      <trkpt lat="52.657339" lon="8.161977">
        <ele>30.669718</ele>
        <time>2026-03-20T11:31:43.857Z</time>
      </trkpt>
      <trkpt lat="52.657488" lon="8.161606">
        <ele>30.597197</ele>
        <time>2026-03-20T11:31:49.239Z</time>
      </trkpt>
      <trkpt lat="52.657483" lon="8.161456">
        <ele>30.516117</ele>
        <time>2026-03-20T11:31:51.000Z</time>
      </trkpt>
      <trkpt lat="52.657532" lon="8.161213">
        <ele>30.377908</ele>
        <time>2026-03-20T11:31:53.949Z</time>
      </trkpt>
      <trkpt lat="52.657561" lon="8.161097">
        <ele>30.310192</ele>
        <time>2026-03-20T11:31:55.378Z</time>
      </trkpt>
      <trkpt lat="52.657628" lon="8.160937">
        <ele>30.205258</ele>
        <time>2026-03-20T11:31:57.567Z</time>
      </trkpt>
      <trkpt lat="52.657655" lon="8.160899">
        <ele>30.173670</ele>
        <time>2026-03-20T11:31:58.227Z</time>
      </trkpt>
      <trkpt lat="52.657668" lon="8.160581">
        <ele>30.001651</ele>
        <time>2026-03-20T11:32:01.783Z</time>
      </trkpt>
      <trkpt lat="52.657961" lon="8.159585">
        <ele>29.404211</ele>
        <time>2026-03-20T11:32:14.599Z</time>
      </trkpt>
      <trkpt lat="52.658141" lon="8.159079">
        <ele>29.112712</ele>
        <time>2026-03-20T11:32:21.704Z</time>
      </trkpt>
      <trkpt lat="52.658439" lon="8.158204">
        <ele>29.004773</ele>
        <time>2026-03-20T11:32:34.574Z</time>
      </trkpt>
      <trkpt lat="52.659624" lon="8.155063">
        <ele>28.686346</ele>
        <time>2026-03-20T11:33:24.530Z</time>
      </trkpt>
      <trkpt lat="52.659804" lon="8.154516">
        <ele>28.646949</ele>
        <time>2026-03-20T11:33:32.640Z</time>
      </trkpt>
      <trkpt lat="52.659944" lon="8.153900">
        <ele>28.607424</ele>
        <time>2026-03-20T11:33:41.241Z</time>
      </trkpt>
      <trkpt lat="52.660024" lon="8.153371">
        <ele>28.583415</ele>
        <time>2026-03-20T11:33:48.179Z</time>
      </trkpt>
      <trkpt lat="52.660181" lon="8.152606">
        <ele>28.547849</ele>
        <time>2026-03-20T11:33:58.717Z</time>
      </trkpt>
      <trkpt lat="52.660222" lon="8.152538">
        <ele>28.543627</ele>
        <time>2026-03-20T11:33:59.984Z</time>
      </trkpt>
      <trkpt lat="52.660426" lon="8.152453">
        <ele>28.528349</ele>
        <time>2026-03-20T11:34:04.638Z</time>
      </trkpt>
      <trkpt lat="52.660453" lon="8.152344">
        <ele>28.523164</ele>
        <time>2026-03-20T11:34:06.237Z</time>
      </trkpt>
      <trkpt lat="52.660476" lon="8.152262">
        <ele>28.519186</ele>
        <time>2026-03-20T11:34:07.436Z</time>
      </trkpt>
      <trkpt lat="52.660412" lon="8.152032">
        <ele>28.508042</ele>
        <time>2026-03-20T11:34:10.888Z</time>
      </trkpt>
      <trkpt lat="52.660347" lon="8.151905">
        <ele>28.500724</ele>
        <time>2026-03-20T11:34:13.184Z</time>
      </trkpt>
      <trkpt lat="52.660238" lon="8.151836">
        <ele>28.492247</ele>
        <time>2026-03-20T11:34:15.820Z</time>
      </trkpt>
      <trkpt lat="52.660170" lon="8.151305">
        <ele>28.538210</ele>
        <time>2026-03-20T11:34:23.288Z</time>
      </trkpt>
      <trkpt lat="52.660173" lon="8.150961">
        <ele>28.602457</ele>
        <time>2026-03-20T11:34:28.054Z</time>
      </trkpt>
      <trkpt lat="52.660198" lon="8.149882">
        <ele>28.804101</ele>
        <time>2026-03-20T11:34:43.662Z</time>
      </trkpt>
      <trkpt lat="52.660341" lon="8.148927">
        <ele>28.987796</ele>
        <time>2026-03-20T11:34:57.763Z</time>
      </trkpt>
      <trkpt lat="52.660565" lon="8.147924">
        <ele>29.162356</ele>
        <time>2026-03-20T11:35:13.007Z</time>
      </trkpt>
      <trkpt lat="52.660804" lon="8.146866">
        <ele>29.338447</ele>
        <time>2026-03-20T11:35:28.682Z</time>
      </trkpt>
      <trkpt lat="52.661267" lon="8.144984">
        <ele>29.601456</ele>
        <time>2026-03-20T11:35:57.563Z</time>
      </trkpt>
      <trkpt lat="52.661353" lon="8.144613">
        <ele>29.642224</ele>
        <time>2026-03-20T11:36:03.239Z</time>
      </trkpt>
      <trkpt lat="52.661464" lon="8.143926">
        <ele>29.715202</ele>
        <time>2026-03-20T11:36:13.206Z</time>
      </trkpt>
      <trkpt lat="52.661499" lon="8.143310">
        <ele>29.778709</ele>
        <time>2026-03-20T11:36:21.716Z</time>
      </trkpt>
      <trkpt lat="52.661471" lon="8.142746">
        <ele>29.748564</ele>
        <time>2026-03-20T11:36:29.347Z</time>
      </trkpt>
      <trkpt lat="52.661227" lon="8.141634">
        <ele>29.558804</ele>
        <time>2026-03-20T11:36:44.350Z</time>
      </trkpt>
      <trkpt lat="52.660891" lon="8.140532">
        <ele>29.360879</ele>
        <time>2026-03-20T11:36:59.783Z</time>
      </trkpt>
      <trkpt lat="52.660568" lon="8.139625">
        <ele>29.209772</ele>
        <time>2026-03-20T11:37:13.656Z</time>
      </trkpt>
      <trkpt lat="52.660463" lon="8.139170">
        <ele>29.141924</ele>
        <time>2026-03-20T11:37:20.260Z</time>
      </trkpt>
      <trkpt lat="52.660413" lon="8.138669">
        <ele>29.071160</ele>
        <time>2026-03-20T11:37:27.030Z</time>
      </trkpt>
      <trkpt lat="52.660407" lon="8.138268">
        <ele>29.015256</ele>
        <time>2026-03-20T11:37:32.307Z</time>
      </trkpt>
      <trkpt lat="52.660440" lon="8.137913">
        <ele>28.965201</ele>
        <time>2026-03-20T11:37:36.982Z</time>
      </trkpt>
      <trkpt lat="52.660454" lon="8.137815">
        <ele>28.951169</ele>
        <time>2026-03-20T11:37:38.289Z</time>
      </trkpt>
      <trkpt lat="52.660854" lon="8.135112">
        <ele>28.093634</ele>
        <time>2026-03-20T11:38:12.381Z</time>
      </trkpt>
      <trkpt lat="52.660814" lon="8.135092">
        <ele>28.071132</ele>
        <time>2026-03-20T11:38:13.226Z</time>
      </trkpt>
      <trkpt lat="52.660877" lon="8.134695">
        <ele>27.944085</ele>
        <time>2026-03-20T11:38:18.321Z</time>
      </trkpt>
      <trkpt lat="52.660926" lon="8.134511">
        <ele>27.937245</ele>
        <time>2026-03-20T11:38:20.894Z</time>
      </trkpt>
      <trkpt lat="52.661055" lon="8.134261">
        <ele>27.926073</ele>
        <time>2026-03-20T11:38:25.127Z</time>
      </trkpt>
      <trkpt lat="52.661008" lon="8.134147">
        <ele>27.921381</ele>
        <time>2026-03-20T11:38:26.936Z</time>
      </trkpt>
      <trkpt lat="52.660984" lon="8.133962">
        <ele>27.914942</ele>
        <time>2026-03-20T11:38:29.421Z</time>
      </trkpt>
      <trkpt lat="52.661020" lon="8.133465">
        <ele>27.897905</ele>
        <time>2026-03-20T11:38:36.094Z</time>
      </trkpt>
      <trkpt lat="52.660983" lon="8.132947">
        <ele>27.880152</ele>
        <time>2026-03-20T11:38:43.158Z</time>
      </trkpt>
      <trkpt lat="52.660947" lon="8.132718">
        <ele>27.872100</ele>
        <time>2026-03-20T11:38:46.405Z</time>
      </trkpt>
      <trkpt lat="52.660868" lon="8.132206">
        <ele>27.854118</ele>
        <time>2026-03-20T11:38:53.695Z</time>
      </trkpt>
      <trkpt lat="52.660701" lon="8.131130">
        <ele>28.024515</ele>
        <time>2026-03-20T11:39:09.286Z</time>
      </trkpt>
      <trkpt lat="52.660625" lon="8.130410">
        <ele>28.186989</ele>
        <time>2026-03-20T11:39:19.724Z</time>
      </trkpt>
      <trkpt lat="52.660616" lon="8.130285">
        <ele>28.214974</ele>
        <time>2026-03-20T11:39:22.108Z</time>
      </trkpt>
      <trkpt lat="52.660606" lon="8.130119">
        <ele>28.252060</ele>
        <time>2026-03-20T11:39:25.274Z</time>
      </trkpt>
      <trkpt lat="52.660578" lon="8.129544">
        <ele>28.380304</ele>
        <time>2026-03-20T11:39:36.195Z</time>
      </trkpt>
      <trkpt lat="52.660570" lon="8.129296">
        <ele>28.435516</ele>
        <time>2026-03-20T11:39:39.832Z</time>
      </trkpt>
      <trkpt lat="52.660643" lon="8.128398">
        <ele>28.637598</ele>
        <time>2026-03-20T11:39:53.075Z</time>
      </trkpt>
      <trkpt lat="52.660680" lon="8.128084">
        <ele>28.709060</ele>
        <time>2026-03-20T11:39:57.746Z</time>
      </trkpt>
      <trkpt lat="52.660856" lon="8.126571">
        <ele>29.053235</ele>
        <time>2026-03-20T11:40:19.700Z</time>
      </trkpt>
      <trkpt lat="52.660877" lon="8.126388">
        <ele>29.094843</ele>
        <time>2026-03-20T11:40:22.288Z</time>
      </trkpt>
      <trkpt lat="52.660931" lon="8.125572">
        <ele>29.216317</ele>
        <time>2026-03-20T11:40:34.046Z</time>
      </trkpt>
      <trkpt lat="52.660917" lon="8.124937">
        <ele>29.280155</ele>
        <time>2026-03-20T11:40:43.226Z</time>
      </trkpt>
      <trkpt lat="52.660925" lon="8.124590">
        <ele>29.315042</ele>
        <time>2026-03-20T11:40:48.162Z</time>
      </trkpt>
      <trkpt lat="52.660956" lon="8.124415">
        <ele>29.333358</ele>
        <time>2026-03-20T11:40:50.679Z</time>
      </trkpt>
      <trkpt lat="52.661046" lon="8.123936">
        <ele>29.383737</ele>
        <time>2026-03-20T11:40:57.496Z</time>
      </trkpt>
      <trkpt lat="52.661126" lon="8.123537">
        <ele>29.425956</ele>
        <time>2026-03-20T11:41:03.256Z</time>
      </trkpt>
      <trkpt lat="52.661107" lon="8.123295">
        <ele>29.450471</ele>
        <time>2026-03-20T11:41:06.570Z</time>
      </trkpt>
      <trkpt lat="52.661051" lon="8.123086">
        <ele>29.454874</ele>
        <time>2026-03-20T11:41:09.658Z</time>
      </trkpt>
      <trkpt lat="52.660774" lon="8.122696">
        <ele>29.400666</ele>
        <time>2026-03-20T11:41:17.534Z</time>
      </trkpt>
      <trkpt lat="52.660669" lon="8.122509">
        <ele>29.377665</ele>
        <time>2026-03-20T11:41:20.785Z</time>
      </trkpt>
      <trkpt lat="52.660552" lon="8.122308">
        <ele>29.352519</ele>
        <time>2026-03-20T11:41:24.311Z</time>
      </trkpt>
      <trkpt lat="52.660167" lon="8.121447">
        <ele>29.255966</ele>
        <time>2026-03-20T11:41:38.214Z</time>
      </trkpt>
      <trkpt lat="52.660097" lon="8.121267">
        <ele>29.236665</ele>
        <time>2026-03-20T11:41:41.085Z</time>
      </trkpt>
      <trkpt lat="52.659991" lon="8.120936">
        <ele>29.202879</ele>
        <time>2026-03-20T11:41:46.174Z</time>
      </trkpt>
      <trkpt lat="52.659937" lon="8.120693">
        <ele>29.168466</ele>
        <time>2026-03-20T11:41:49.590Z</time>
      </trkpt>
      <trkpt lat="52.659901" lon="8.120550">
        <ele>29.145108</ele>
        <time>2026-03-20T11:41:51.621Z</time>
      </trkpt>
      <trkpt lat="52.659769" lon="8.119969">
        <ele>29.051512</ele>
        <time>2026-03-20T11:41:59.902Z</time>
      </trkpt>
      <trkpt lat="52.659729" lon="8.119795">
        <ele>29.023440</ele>
        <time>2026-03-20T11:42:02.378Z</time>
      </trkpt>
      <trkpt lat="52.659617" lon="8.119314">
        <ele>28.945713</ele>
        <time>2026-03-20T11:42:09.195Z</time>
      </trkpt>
      <trkpt lat="52.659577" lon="8.119070">
        <ele>28.907582</ele>
        <time>2026-03-20T11:42:12.500Z</time>
      </trkpt>
      <trkpt lat="52.659576" lon="8.118851">
        <ele>28.874543</ele>
        <time>2026-03-20T11:42:15.345Z</time>
      </trkpt>
      <trkpt lat="52.659615" lon="8.118424">
        <ele>28.809399</ele>
        <time>2026-03-20T11:42:20.827Z</time>
      </trkpt>
      <trkpt lat="52.659695" lon="8.117482">
        <ele>28.541580</ele>
        <time>2026-03-20T11:42:32.358Z</time>
      </trkpt>
      <trkpt lat="52.659704" lon="8.117382">
        <ele>28.503409</ele>
        <time>2026-03-20T11:42:33.594Z</time>
      </trkpt>
      <trkpt lat="52.659722" lon="8.116813">
        <ele>28.288275</ele>
        <time>2026-03-20T11:42:40.533Z</time>
      </trkpt>
      <trkpt lat="52.659674" lon="8.116212">
        <ele>28.059392</ele>
        <time>2026-03-20T11:42:47.904Z</time>
      </trkpt>
      <trkpt lat="52.659650" lon="8.115975">
        <ele>27.968668</ele>
        <time>2026-03-20T11:42:50.861Z</time>
      </trkpt>
      <trkpt lat="52.659642" lon="8.115801">
        <ele>27.902781</ele>
        <time>2026-03-20T11:42:53.043Z</time>
      </trkpt>
      <trkpt lat="52.659643" lon="8.115658">
        <ele>27.848783</ele>
        <time>2026-03-20T11:42:54.807Z</time>
      </trkpt>
      <trkpt lat="52.659661" lon="8.115418">
        <ele>27.757474</ele>
        <time>2026-03-20T11:42:57.779Z</time>
      </trkpt>
      <trkpt lat="52.659695" lon="8.115225">
        <ele>27.681590</ele>
        <time>2026-03-20T11:43:00.236Z</time>
      </trkpt>
      <trkpt lat="52.659757" lon="8.115010">
        <ele>27.588641</ele>
        <time>2026-03-20T11:43:03.140Z</time>
      </trkpt>
      <trkpt lat="52.659771" lon="8.114966">
        <ele>27.568339</ele>
        <time>2026-03-20T11:43:03.767Z</time>
      </trkpt>
      <trkpt lat="52.659811" lon="8.114847">
        <ele>27.512748</ele>
        <time>2026-03-20T11:43:05.437Z</time>
      </trkpt>
      <trkpt lat="52.660047" lon="8.114214">
        <ele>27.209147</ele>
        <time>2026-03-20T11:43:14.665Z</time>
      </trkpt>
      <trkpt lat="52.660139" lon="8.113837">
        <ele>27.043103</ele>
        <time>2026-03-20T11:43:19.695Z</time>
      </trkpt>
      <trkpt lat="52.660182" lon="8.113347">
        <ele>26.840804</ele>
        <time>2026-03-20T11:43:25.658Z</time>
      </trkpt>
      <trkpt lat="52.660182" lon="8.112817">
        <ele>26.624245</ele>
        <time>2026-03-20T11:43:32.027Z</time>
      </trkpt>
      <trkpt lat="52.660179" lon="8.112521">
        <ele>26.503282</ele>
        <time>2026-03-20T11:43:35.706Z</time>
      </trkpt>
      <trkpt lat="52.660128" lon="8.112464">
        <ele>26.461775</ele>
        <time>2026-03-20T11:43:36.915Z</time>
      </trkpt>
      <trkpt lat="52.660109" lon="8.112202">
        <ele>26.380957</ele>
        <time>2026-03-20T11:43:40.043Z</time>
      </trkpt>
      <trkpt lat="52.660113" lon="8.111657">
        <ele>26.253187</ele>
        <time>2026-03-20T11:43:46.575Z</time>
      </trkpt>
      <trkpt lat="52.660143" lon="8.111346">
        <ele>26.179365</ele>
        <time>2026-03-20T11:43:50.426Z</time>
      </trkpt>
      <trkpt lat="52.660365" lon="8.110061">
        <ele>25.866149</ele>
        <time>2026-03-20T11:44:07.329Z</time>
      </trkpt>
      <trkpt lat="52.660543" lon="8.109190">
        <ele>25.756730</ele>
        <time>2026-03-20T11:44:20.053Z</time>
      </trkpt>
      <trkpt lat="52.660598" lon="8.108655">
        <ele>25.818334</ele>
        <time>2026-03-20T11:44:27.669Z</time>
      </trkpt>
      <trkpt lat="52.660580" lon="8.108393">
        <ele>25.848269</ele>
        <time>2026-03-20T11:44:31.397Z</time>
      </trkpt>
      <trkpt lat="52.660521" lon="8.108119">
        <ele>25.881277</ele>
        <time>2026-03-20T11:44:35.523Z</time>
      </trkpt>
      <trkpt lat="52.660150" lon="8.106883">
        <ele>26.037841</ele>
        <time>2026-03-20T11:44:54.902Z</time>
      </trkpt>
      <trkpt lat="52.660122" lon="8.106661">
        <ele>26.062068</ele>
        <time>2026-03-20T11:44:57.997Z</time>
      </trkpt>
      <trkpt lat="52.660123" lon="8.106452">
        <ele>26.078294</ele>
        <time>2026-03-20T11:45:00.824Z</time>
      </trkpt>
      <trkpt lat="52.660170" lon="8.106126">
        <ele>26.104307</ele>
        <time>2026-03-20T11:45:05.326Z</time>
      </trkpt>
      <trkpt lat="52.660345" lon="8.105453">
        <ele>26.161152</ele>
        <time>2026-03-20T11:45:15.249Z</time>
      </trkpt>
      <trkpt lat="52.660387" lon="8.105484">
        <ele>26.167042</ele>
        <time>2026-03-20T11:45:16.275Z</time>
      </trkpt>
      <trkpt lat="52.660523" lon="8.105514">
        <ele>26.184604</ele>
        <time>2026-03-20T11:45:19.402Z</time>
      </trkpt>
      <trkpt lat="52.660936" lon="8.105365">
        <ele>26.238716</ele>
        <time>2026-03-20T11:45:29.133Z</time>
      </trkpt>
      <trkpt lat="52.662942" lon="8.103868">
        <ele>26.514427</ele>
        <time>2026-03-20T11:46:20.035Z</time>
      </trkpt>
      <trkpt lat="52.664025" lon="8.103079">
        <ele>26.119371</ele>
        <time>2026-03-20T11:46:44.105Z</time>
      </trkpt>
      <trkpt lat="52.665018" lon="8.102292">
        <ele>25.973922</ele>
        <time>2026-03-20T11:47:07.795Z</time>
      </trkpt>
      <trkpt lat="52.665845" lon="8.101498">
        <ele>26.081967</ele>
        <time>2026-03-20T11:47:30.221Z</time>
      </trkpt>
      <trkpt lat="52.666411" lon="8.100788">
        <ele>26.099005</ele>
        <time>2026-03-20T11:47:46.968Z</time>
      </trkpt>
      <trkpt lat="52.667032" lon="8.099853">
        <ele>26.049010</ele>
        <time>2026-03-20T11:48:05.531Z</time>
      </trkpt>
      <trkpt lat="52.667160" lon="8.099745">
        <ele>26.040462</ele>
        <time>2026-03-20T11:48:08.602Z</time>
      </trkpt>
      <trkpt lat="52.668003" lon="8.099519">
        <ele>25.909408</ele>
        <time>2026-03-20T11:48:26.427Z</time>
      </trkpt>
      <trkpt lat="52.668072" lon="8.099470">
        <ele>25.890128</ele>
        <time>2026-03-20T11:48:28.009Z</time>
      </trkpt>
      <trkpt lat="52.668003" lon="8.098731">
        <ele>25.773765</ele>
        <time>2026-03-20T11:48:37.510Z</time>
      </trkpt>
      <trkpt lat="52.668025" lon="8.098354">
        <ele>25.714822</ele>
        <time>2026-03-20T11:48:42.409Z</time>
      </trkpt>
      <trkpt lat="52.668076" lon="8.097980">
        <ele>25.655164</ele>
        <time>2026-03-20T11:48:47.466Z</time>
      </trkpt>
      <trkpt lat="52.668289" lon="8.097051">
        <ele>25.531593</ele>
        <time>2026-03-20T11:49:00.597Z</time>
      </trkpt>
      <trkpt lat="52.668345" lon="8.096677">
        <ele>25.507575</ele>
        <time>2026-03-20T11:49:05.750Z</time>
      </trkpt>
      <trkpt lat="52.668385" lon="8.096114">
        <ele>25.472233</ele>
        <time>2026-03-20T11:49:13.222Z</time>
      </trkpt>
      <trkpt lat="52.668420" lon="8.094036">
        <ele>25.382751</ele>
        <time>2026-03-20T11:49:40.566Z</time>
      </trkpt>
      <trkpt lat="52.668425" lon="8.093869">
        <ele>25.389218</ele>
        <time>2026-03-20T11:49:42.807Z</time>
      </trkpt>
      <trkpt lat="52.668435" lon="8.093655">
        <ele>25.397519</ele>
        <time>2026-03-20T11:49:45.734Z</time>
      </trkpt>
      <trkpt lat="52.668562" lon="8.092851">
        <ele>25.429650</ele>
        <time>2026-03-20T11:49:57.209Z</time>
      </trkpt>
      <trkpt lat="52.668610" lon="8.092311">
        <ele>25.450758</ele>
        <time>2026-03-20T11:50:04.858Z</time>
      </trkpt>
      <trkpt lat="52.668697" lon="8.092275">
        <ele>25.456478</ele>
        <time>2026-03-20T11:50:06.912Z</time>
      </trkpt>
      <trkpt lat="52.668757" lon="8.092177">
        <ele>25.461864</ele>
        <time>2026-03-20T11:50:08.895Z</time>
      </trkpt>
      <trkpt lat="52.671008" lon="8.088179">
        <ele>25.682524</ele>
        <time>2026-03-20T11:51:23.141Z</time>
      </trkpt>
      <trkpt lat="52.672546" lon="8.085596">
        <ele>25.989948</ele>
        <time>2026-03-20T11:52:13.685Z</time>
      </trkpt>
      <trkpt lat="52.673201" lon="8.084904">
        <ele>25.957652</ele>
        <time>2026-03-20T11:52:30.545Z</time>
      </trkpt>
      <trkpt lat="52.673946" lon="8.084272">
        <ele>25.861912</ele>
        <time>2026-03-20T11:52:48.600Z</time>
      </trkpt>
      <trkpt lat="52.674723" lon="8.083670">
        <ele>25.812621</ele>
        <time>2026-03-20T11:53:07.494Z</time>
      </trkpt>
      <trkpt lat="52.675942" lon="8.083195">
        <ele>25.800761</ele>
        <time>2026-03-20T11:53:35.711Z</time>
      </trkpt>
      <trkpt lat="52.676811" lon="8.082652">
        <ele>25.698023</ele>
        <time>2026-03-20T11:53:56.320Z</time>
      </trkpt>
      <trkpt lat="52.677044" lon="8.082420">
        <ele>25.665328</ele>
        <time>2026-03-20T11:54:02.255Z</time>
      </trkpt>
      <trkpt lat="52.677465" lon="8.081912">
        <ele>25.602665</ele>
        <time>2026-03-20T11:54:13.325Z</time>
      </trkpt>
      <trkpt lat="52.677728" lon="8.081525">
        <ele>25.519966</ele>
        <time>2026-03-20T11:54:20.713Z</time>
      </trkpt>
      <trkpt lat="52.677974" lon="8.081034">
        <ele>25.394269</ele>
        <time>2026-03-20T11:54:28.784Z</time>
      </trkpt>
      <trkpt lat="52.678045" lon="8.080944">
        <ele>25.365123</ele>
        <time>2026-03-20T11:54:30.642Z</time>
      </trkpt>
      <trkpt lat="52.678119" lon="8.080859">
        <ele>25.335772</ele>
        <time>2026-03-20T11:54:32.518Z</time>
      </trkpt>
      <trkpt lat="52.678293" lon="8.081274">
        <ele>25.236200</ele>
        <time>2026-03-20T11:54:38.856Z</time>
      </trkpt>
      <trkpt lat="52.678457" lon="8.081559">
        <ele>25.158660</ele>
        <time>2026-03-20T11:54:43.714Z</time>
      </trkpt>
      <trkpt lat="52.678692" lon="8.081925">
        <ele>25.053460</ele>
        <time>2026-03-20T11:54:50.493Z</time>
      </trkpt>
      <trkpt lat="52.678951" lon="8.082251">
        <ele>25.030436</ele>
        <time>2026-03-20T11:54:57.713Z</time>
      </trkpt>
      <trkpt lat="52.679039" lon="8.082431">
        <ele>25.058961</ele>
        <time>2026-03-20T11:55:00.942Z</time>
      </trkpt>
      <trkpt lat="52.679233" lon="8.082647">
        <ele>25.106585</ele>
        <time>2026-03-20T11:55:06.338Z</time>
      </trkpt>
      <trkpt lat="52.679374" lon="8.082710">
        <ele>25.136309</ele>
        <time>2026-03-20T11:55:09.751Z</time>
      </trkpt>
      <trkpt lat="52.679575" lon="8.082983">
        <ele>25.189287</ele>
        <time>2026-03-20T11:55:15.854Z</time>
      </trkpt>
      <trkpt lat="52.679805" lon="8.083396">
        <ele>25.258466</ele>
        <time>2026-03-20T11:55:23.825Z</time>
      </trkpt>
      <trkpt lat="52.679871" lon="8.083619">
        <ele>25.289077</ele>
        <time>2026-03-20T11:55:27.397Z</time>
      </trkpt>
      <trkpt lat="52.680000" lon="8.083630">
        <ele>25.315360</ele>
        <time>2026-03-20T11:55:30.513Z</time>
      </trkpt>
      <trkpt lat="52.680103" lon="8.083727">
        <ele>25.339493</ele>
        <time>2026-03-20T11:55:33.408Z</time>
      </trkpt>
      <trkpt lat="52.681219" lon="8.085138">
        <ele>25.450274</ele>
        <time>2026-03-20T11:56:05.334Z</time>
      </trkpt>
      <trkpt lat="52.682396" lon="8.086737">
        <ele>25.376823</ele>
        <time>2026-03-20T11:56:38.440Z</time>
      </trkpt>
      <trkpt lat="52.682674" lon="8.087407">
        <ele>25.324216</ele>
        <time>2026-03-20T11:56:49.129Z</time>
      </trkpt>
      <trkpt lat="52.682750" lon="8.087481">
        <ele>25.314784</ele>
        <time>2026-03-20T11:56:51.108Z</time>
      </trkpt>
      <trkpt lat="52.683031" lon="8.086449">
        <ele>25.241613</ele>
        <time>2026-03-20T11:57:06.361Z</time>
      </trkpt>
      <trkpt lat="52.683325" lon="8.085576">
        <ele>25.177073</ele>
        <time>2026-03-20T11:57:19.660Z</time>
      </trkpt>
      <trkpt lat="52.683445" lon="8.085356">
        <ele>25.157947</ele>
        <time>2026-03-20T11:57:23.521Z</time>
      </trkpt>
      <trkpt lat="52.683748" lon="8.084931">
        <ele>25.115547</ele>
        <time>2026-03-20T11:57:32.139Z</time>
      </trkpt>
      <trkpt lat="52.684050" lon="8.084577">
        <ele>25.106792</ele>
        <time>2026-03-20T11:57:40.095Z</time>
      </trkpt>
      <trkpt lat="52.684216" lon="8.084448">
        <ele>25.111589</ele>
        <time>2026-03-20T11:57:44.054Z</time>
      </trkpt>
      <trkpt lat="52.684821" lon="8.084102">
        <ele>25.128330</ele>
        <time>2026-03-20T11:57:58.026Z</time>
      </trkpt>
      <trkpt lat="52.685082" lon="8.083907">
        <ele>25.135821</ele>
        <time>2026-03-20T11:58:04.347Z</time>
      </trkpt>
      <trkpt lat="52.686306" lon="8.082842">
        <ele>25.283882</ele>
        <time>2026-03-20T11:58:36.835Z</time>
      </trkpt>
      <trkpt lat="52.686536" lon="8.082129">
        <ele>25.355767</ele>
        <time>2026-03-20T11:58:48.130Z</time>
      </trkpt>
      <trkpt lat="52.686686" lon="8.081466">
        <ele>25.398255</ele>
        <time>2026-03-20T11:58:57.589Z</time>
      </trkpt>
      <trkpt lat="52.686711" lon="8.081164">
        <ele>25.344823</ele>
        <time>2026-03-20T11:59:01.557Z</time>
      </trkpt>
      <trkpt lat="52.686686" lon="8.080902">
        <ele>25.298329</ele>
        <time>2026-03-20T11:59:04.963Z</time>
      </trkpt>
      <trkpt lat="52.686253" lon="8.079543">
        <ele>25.029192</ele>
        <time>2026-03-20T11:59:24.345Z</time>
      </trkpt>
      <trkpt lat="52.686155" lon="8.079134">
        <ele>24.952096</ele>
        <time>2026-03-20T11:59:29.966Z</time>
      </trkpt>
      <trkpt lat="52.686098" lon="8.078573">
        <ele>24.865220</ele>
        <time>2026-03-20T11:59:37.322Z</time>
      </trkpt>
      <trkpt lat="52.686098" lon="8.077870">
        <ele>24.782228</ele>
        <time>2026-03-20T11:59:46.519Z</time>
      </trkpt>
      <trkpt lat="52.686157" lon="8.077280">
        <ele>24.711636</ele>
        <time>2026-03-20T11:59:54.419Z</time>
      </trkpt>
      <trkpt lat="52.686267" lon="8.076642">
        <ele>24.633330</ele>
        <time>2026-03-20T12:00:03.128Z</time>
      </trkpt>
      <trkpt lat="52.686681" lon="8.075117">
        <ele>24.550494</ele>
        <time>2026-03-20T12:00:24.575Z</time>
      </trkpt>
      <trkpt lat="52.686757" lon="8.074813">
        <ele>24.553840</ele>
        <time>2026-03-20T12:00:28.930Z</time>
      </trkpt>
      <trkpt lat="52.686777" lon="8.074634">
        <ele>24.555693</ele>
        <time>2026-03-20T12:00:31.382Z</time>
      </trkpt>
      <trkpt lat="52.686777" lon="8.074589">
        <ele>24.556150</ele>
        <time>2026-03-20T12:00:31.987Z</time>
      </trkpt>
      <trkpt lat="52.686763" lon="8.074294">
        <ele>24.559161</ele>
        <time>2026-03-20T12:00:36.024Z</time>
      </trkpt>
      <trkpt lat="52.686567" lon="8.072735">
        <ele>24.700752</ele>
        <time>2026-03-20T12:00:58.409Z</time>
      </trkpt>
      <trkpt lat="52.686333" lon="8.071181">
        <ele>25.261051</ele>
        <time>2026-03-20T12:01:22.489Z</time>
      </trkpt>
      <trkpt lat="52.685870" lon="8.069678">
        <ele>25.728294</ele>
        <time>2026-03-20T12:01:47.907Z</time>
      </trkpt>
      <trkpt lat="52.685818" lon="8.069435">
        <ele>25.772579</ele>
        <time>2026-03-20T12:01:51.816Z</time>
      </trkpt>
      <trkpt lat="52.685809" lon="8.069205">
        <ele>25.812186</ele>
        <time>2026-03-20T12:01:55.278Z</time>
      </trkpt>
      <trkpt lat="52.685975" lon="8.067549">
        <ele>26.100631</ele>
        <time>2026-03-20T12:02:18.663Z</time>
      </trkpt>
      <trkpt lat="52.686168" lon="8.065466">
        <ele>25.664163</ele>
        <time>2026-03-20T12:02:44.837Z</time>
      </trkpt>
      <trkpt lat="52.686148" lon="8.065239">
        <ele>25.611796</ele>
        <time>2026-03-20T12:02:47.675Z</time>
      </trkpt>
      <trkpt lat="52.686132" lon="8.065162">
        <ele>25.593213</ele>
        <time>2026-03-20T12:02:48.670Z</time>
      </trkpt>
      <trkpt lat="52.687995" lon="8.063913">
        <ele>25.127586</ele>
        <time>2026-03-20T12:03:31.893Z</time>
      </trkpt>
      <trkpt lat="52.688686" lon="8.063413">
        <ele>25.092761</ele>
        <time>2026-03-20T12:03:48.412Z</time>
      </trkpt>
      <trkpt lat="52.689906" lon="8.062566">
        <ele>25.106108</ele>
        <time>2026-03-20T12:04:18.023Z</time>
      </trkpt>
      <trkpt lat="52.691805" lon="8.061249">
        <ele>25.351220</ele>
        <time>2026-03-20T12:05:04.835Z</time>
      </trkpt>
      <trkpt lat="52.693461" lon="8.060097">
        <ele>25.767240</ele>
        <time>2026-03-20T12:05:46.525Z</time>
      </trkpt>
      <trkpt lat="52.693443" lon="8.059987">
        <ele>25.788549</ele>
        <time>2026-03-20T12:05:48.249Z</time>
      </trkpt>
      <trkpt lat="52.693521" lon="8.058047">
        <ele>26.152163</ele>
        <time>2026-03-20T12:06:16.565Z</time>
      </trkpt>
      <trkpt lat="52.693807" lon="8.056156">
        <ele>26.177600</ele>
        <time>2026-03-20T12:06:42.305Z</time>
      </trkpt>
      <trkpt lat="52.694488" lon="8.051158">
        <ele>26.040701</ele>
        <time>2026-03-20T12:07:50.706Z</time>
      </trkpt>
      <trkpt lat="52.694952" lon="8.047967">
        <ele>25.648186</ele>
        <time>2026-03-20T12:08:35.186Z</time>
      </trkpt>
      <trkpt lat="52.695307" lon="8.045522">
        <ele>24.857887</ele>
        <time>2026-03-20T12:09:04.563Z</time>
      </trkpt>
      <trkpt lat="52.695547" lon="8.043695">
        <ele>24.504810</ele>
        <time>2026-03-20T12:09:28.913Z</time>
      </trkpt>
      <trkpt lat="52.695561" lon="8.043610">
        <ele>24.488174</ele>
        <time>2026-03-20T12:09:30.144Z</time>
      </trkpt>
      <trkpt lat="52.695853" lon="8.041485">
        <ele>24.897030</ele>
        <time>2026-03-20T12:10:01.109Z</time>
      </trkpt>
      <trkpt lat="52.696249" lon="8.038756">
        <ele>25.219629</ele>
        <time>2026-03-20T12:10:43.514Z</time>
      </trkpt>
      <trkpt lat="52.696630" lon="8.036246">
        <ele>24.685075</ele>
        <time>2026-03-20T12:11:14.433Z</time>
      </trkpt>
      <trkpt lat="52.696894" lon="8.035479">
        <ele>24.304530</ele>
        <time>2026-03-20T12:11:24.624Z</time>
      </trkpt>
      <trkpt lat="52.697112" lon="8.034937">
        <ele>24.023889</ele>
        <time>2026-03-20T12:11:32.458Z</time>
      </trkpt>
      <trkpt lat="52.698556" lon="8.031956">
        <ele>24.550506</ele>
        <time>2026-03-20T12:12:27.303Z</time>
      </trkpt>
      <trkpt lat="52.698753" lon="8.031369">
        <ele>24.655821</ele>
        <time>2026-03-20T12:12:37.306Z</time>
      </trkpt>
      <trkpt lat="52.698842" lon="8.030955">
        <ele>24.724767</ele>
        <time>2026-03-20T12:12:43.673Z</time>
      </trkpt>
      <trkpt lat="52.698993" lon="8.030253">
        <ele>24.841682</ele>
        <time>2026-03-20T12:12:54.092Z</time>
      </trkpt>
      <trkpt lat="52.699920" lon="8.025992">
        <ele>24.730455</ele>
        <time>2026-03-20T12:13:53.085Z</time>
      </trkpt>
      <trkpt lat="52.700007" lon="8.025590">
        <ele>24.766300</ele>
        <time>2026-03-20T12:13:59.240Z</time>
      </trkpt>
      <trkpt lat="52.700031" lon="8.025472">
        <ele>24.776752</ele>
        <time>2026-03-20T12:14:01.110Z</time>
      </trkpt>
      <trkpt lat="52.700407" lon="8.023654">
        <ele>24.861494</ele>
        <time>2026-03-20T12:14:28.887Z</time>
      </trkpt>
      <trkpt lat="52.700904" lon="8.021211">
        <ele>24.784310</ele>
        <time>2026-03-20T12:15:02.321Z</time>
      </trkpt>
      <trkpt lat="52.701689" lon="8.017302">
        <ele>25.002808</ele>
        <time>2026-03-20T12:15:58.305Z</time>
      </trkpt>
      <trkpt lat="52.702083" lon="8.015406">
        <ele>25.241597</ele>
        <time>2026-03-20T12:16:27.916Z</time>
      </trkpt>
      <trkpt lat="52.703520" lon="8.008335">
        <ele>24.864603</ele>
        <time>2026-03-20T12:18:05.686Z</time>
      </trkpt>
      <trkpt lat="52.703879" lon="8.006566">
        <ele>24.697563</ele>
        <time>2026-03-20T12:18:30.790Z</time>
      </trkpt>
      <trkpt lat="52.703900" lon="8.006465">
        <ele>24.684531</ele>
        <time>2026-03-20T12:18:32.250Z</time>
      </trkpt>
      <trkpt lat="52.703911" lon="8.006412">
        <ele>24.677694</ele>
        <time>2026-03-20T12:18:33.006Z</time>
      </trkpt>
      <trkpt lat="52.703642" lon="8.006188">
        <ele>24.617010</ele>
        <time>2026-03-20T12:18:39.681Z</time>
      </trkpt>
      <trkpt lat="52.703450" lon="8.005969">
        <ele>24.570003</ele>
        <time>2026-03-20T12:18:44.732Z</time>
      </trkpt>
      <trkpt lat="52.702801" lon="8.004931">
        <ele>24.261744</ele>
        <time>2026-03-20T12:19:03.559Z</time>
      </trkpt>
      <trkpt lat="52.699914" lon="8.000256">
        <ele>21.774945</ele>
        <time>2026-03-20T12:20:23.834Z</time>
      </trkpt>
      <trkpt lat="52.699279" lon="7.999300">
        <ele>21.679578</ele>
        <time>2026-03-20T12:20:43.026Z</time>
      </trkpt>
      <trkpt lat="52.699038" lon="7.999046">
        <ele>21.721218</ele>
        <time>2026-03-20T12:20:50.252Z</time>
      </trkpt>
      <trkpt lat="52.698650" lon="7.998736">
        <ele>22.198597</ele>
        <time>2026-03-20T12:21:01.756Z</time>
      </trkpt>
      <trkpt lat="52.698411" lon="7.998641">
        <ele>22.470833</ele>
        <time>2026-03-20T12:21:08.691Z</time>
      </trkpt>
      <trkpt lat="52.696052" lon="7.998064">
        <ele>24.856025</ele>
        <time>2026-03-20T12:22:13.201Z</time>
      </trkpt>
      <trkpt lat="52.695758" lon="7.997938">
        <ele>25.133710</ele>
        <time>2026-03-20T12:22:20.567Z</time>
      </trkpt>
      <trkpt lat="52.695461" lon="7.997754">
        <ele>25.243868</ele>
        <time>2026-03-20T12:22:27.988Z</time>
      </trkpt>
      <trkpt lat="52.695106" lon="7.997398">
        <ele>25.110579</ele>
        <time>2026-03-20T12:22:37.151Z</time>
      </trkpt>
      <trkpt lat="52.694834" lon="7.996808">
        <ele>24.966430</ele>
        <time>2026-03-20T12:22:46.490Z</time>
      </trkpt>
      <trkpt lat="52.694722" lon="7.996492">
        <ele>24.895246</ele>
        <time>2026-03-20T12:22:50.915Z</time>
      </trkpt>
      <trkpt lat="52.694165" lon="7.994540">
        <ele>24.303740</ele>
        <time>2026-03-20T12:23:17.085Z</time>
      </trkpt>
      <trkpt lat="52.694073" lon="7.994418">
        <ele>24.238485</ele>
        <time>2026-03-20T12:23:19.527Z</time>
      </trkpt>
      <trkpt lat="52.693932" lon="7.993923">
        <ele>24.055215</ele>
        <time>2026-03-20T12:23:26.423Z</time>
      </trkpt>
      <trkpt lat="52.693719" lon="7.993081">
        <ele>23.749488</ele>
        <time>2026-03-20T12:23:37.931Z</time>
      </trkpt>
      <trkpt lat="52.693703" lon="7.992936">
        <ele>23.702352</ele>
        <time>2026-03-20T12:23:39.794Z</time>
      </trkpt>
      <trkpt lat="52.693706" lon="7.992852">
        <ele>23.677499</ele>
        <time>2026-03-20T12:23:40.847Z</time>
      </trkpt>
      <trkpt lat="52.693473" lon="7.991992">
        <ele>23.399257</ele>
        <time>2026-03-20T12:23:52.503Z</time>
      </trkpt>
      <trkpt lat="52.693363" lon="7.991867">
        <ele>23.334165</ele>
        <time>2026-03-20T12:23:55.179Z</time>
      </trkpt>
      <trkpt lat="52.693052" lon="7.990731">
        <ele>22.965980</ele>
        <time>2026-03-20T12:24:10.149Z</time>
      </trkpt>
      <trkpt lat="52.692645" lon="7.989294">
        <ele>23.376604</ele>
        <time>2026-03-20T12:24:31.705Z</time>
      </trkpt>
      <trkpt lat="52.692146" lon="7.987405">
        <ele>24.297065</ele>
        <time>2026-03-20T12:25:06.181Z</time>
      </trkpt>
      <trkpt lat="52.692140" lon="7.987190">
        <ele>24.377639</ele>
        <time>2026-03-20T12:25:09.892Z</time>
      </trkpt>
      <trkpt lat="52.691854" lon="7.986178">
        <ele>24.795664</ele>
        <time>2026-03-20T12:25:27.948Z</time>
      </trkpt>
      <trkpt lat="52.691846" lon="7.986142">
        <ele>24.810019</ele>
        <time>2026-03-20T12:25:28.522Z</time>
      </trkpt>
      <trkpt lat="52.691763" lon="7.985849">
        <ele>24.931100</ele>
        <time>2026-03-20T12:25:33.345Z</time>
      </trkpt>
      <trkpt lat="52.690858" lon="7.982637">
        <ele>25.012984</ele>
        <time>2026-03-20T12:26:18.774Z</time>
      </trkpt>
      <trkpt lat="52.690801" lon="7.982725">
        <ele>24.997847</ele>
        <time>2026-03-20T12:26:20.654Z</time>
      </trkpt>
      <trkpt lat="52.690700" lon="7.983015">
        <ele>24.965968</ele>
        <time>2026-03-20T12:26:25.564Z</time>
      </trkpt>
      <trkpt lat="52.689876" lon="7.986100">
        <ele>25.521306</ele>
        <time>2026-03-20T12:27:19.155Z</time>
      </trkpt>
      <trkpt lat="52.689770" lon="7.986498">
        <ele>25.550730</ele>
        <time>2026-03-20T12:27:26.029Z</time>
      </trkpt>
      <trkpt lat="52.689669" lon="7.986647">
        <ele>25.565859</ele>
        <time>2026-03-20T12:27:29.523Z</time>
      </trkpt>
      <trkpt lat="52.689571" lon="7.986728">
        <ele>25.578099</ele>
        <time>2026-03-20T12:27:32.355Z</time>
      </trkpt>
      <trkpt lat="52.689368" lon="7.986815">
        <ele>25.601519</ele>
        <time>2026-03-20T12:27:37.702Z</time>
      </trkpt>
      <trkpt lat="52.689211" lon="7.986815">
        <ele>25.619051</ele>
        <time>2026-03-20T12:27:41.681Z</time>
      </trkpt>
      <trkpt lat="52.688203" lon="7.986399">
        <ele>25.517193</ele>
        <time>2026-03-20T12:28:06.678Z</time>
      </trkpt>
      <trkpt lat="52.687933" lon="7.986287">
        <ele>25.386825</ele>
        <time>2026-03-20T12:28:13.139Z</time>
      </trkpt>
      <trkpt lat="52.687661" lon="7.986314">
        <ele>25.259225</ele>
        <time>2026-03-20T12:28:19.460Z</time>
      </trkpt>
      <trkpt lat="52.687448" lon="7.986273">
        <ele>25.158807</ele>
        <time>2026-03-20T12:28:24.350Z</time>
      </trkpt>
      <trkpt lat="52.687100" lon="7.986230">
        <ele>24.995392</ele>
        <time>2026-03-20T12:28:32.232Z</time>
      </trkpt>
      <trkpt lat="52.687028" lon="7.986221">
        <ele>24.961580</ele>
        <time>2026-03-20T12:28:33.844Z</time>
      </trkpt>
      <trkpt lat="52.686881" lon="7.986276">
        <ele>24.890996</ele>
        <time>2026-03-20T12:28:37.210Z</time>
      </trkpt>
      <trkpt lat="52.686789" lon="7.986495">
        <ele>24.805141</ele>
        <time>2026-03-20T12:28:40.796Z</time>
      </trkpt>
      <trkpt lat="52.686608" lon="7.986811">
        <ele>24.646206</ele>
        <time>2026-03-20T12:28:46.684Z</time>
      </trkpt>
      <trkpt lat="52.686312" lon="7.987172">
        <ele>24.424208</ele>
        <time>2026-03-20T12:28:54.982Z</time>
      </trkpt>
      <trkpt lat="52.686119" lon="7.987297">
        <ele>24.299165</ele>
        <time>2026-03-20T12:28:59.640Z</time>
      </trkpt>
      <trkpt lat="52.685838" lon="7.987366">
        <ele>24.127832</ele>
        <time>2026-03-20T12:29:05.977Z</time>
      </trkpt>
      <trkpt lat="52.685555" lon="7.987265">
        <ele>23.953212</ele>
        <time>2026-03-20T12:29:12.516Z</time>
      </trkpt>
      <trkpt lat="52.684982" lon="7.986944">
        <ele>23.778611</ele>
        <time>2026-03-20T12:29:26.637Z</time>
      </trkpt>
      <trkpt lat="52.684935" lon="7.986996">
        <ele>23.781002</ele>
        <time>2026-03-20T12:29:27.998Z</time>
      </trkpt>
      <trkpt lat="52.684892" lon="7.987123">
        <ele>23.784728</ele>
        <time>2026-03-20T12:29:30.142Z</time>
      </trkpt>
      <trkpt lat="52.684842" lon="7.987140">
        <ele>23.786886</ele>
        <time>2026-03-20T12:29:31.380Z</time>
      </trkpt>
      <trkpt lat="52.684047" lon="7.986817">
        <ele>23.821482</ele>
        <time>2026-03-20T12:29:51.685Z</time>
      </trkpt>
      <trkpt lat="52.683735" lon="7.986737">
        <ele>23.834824</ele>
        <time>2026-03-20T12:29:59.983Z</time>
      </trkpt>
      <trkpt lat="52.683501" lon="7.986748">
        <ele>23.866170</ele>
        <time>2026-03-20T12:30:06.272Z</time>
      </trkpt>
      <trkpt lat="52.683378" lon="7.986797">
        <ele>23.916214</ele>
        <time>2026-03-20T12:30:09.678Z</time>
      </trkpt>
      <trkpt lat="52.683338" lon="7.986846">
        <ele>23.935919</ele>
        <time>2026-03-20T12:30:11.005Z</time>
      </trkpt>
      <trkpt lat="52.683279" lon="7.987107">
        <ele>24.002704</ele>
        <time>2026-03-20T12:30:15.575Z</time>
      </trkpt>
      <trkpt lat="52.683226" lon="7.987127">
        <ele>24.024206</ele>
        <time>2026-03-20T12:30:17.027Z</time>
      </trkpt>
      <trkpt lat="52.683205" lon="7.987122">
        <ele>24.032598</ele>
        <time>2026-03-20T12:30:17.615Z</time>
      </trkpt>
      <trkpt lat="52.682216" lon="7.986907">
        <ele>24.427121</ele>
        <time>2026-03-20T12:30:43.808Z</time>
      </trkpt>
      <trkpt lat="52.682151" lon="7.986817">
        <ele>24.460684</ele>
        <time>2026-03-20T12:30:46.007Z</time>
      </trkpt>
      <trkpt lat="52.682113" lon="7.986622">
        <ele>24.509793</ele>
        <time>2026-03-20T12:30:49.241Z</time>
      </trkpt>
      <trkpt lat="52.682016" lon="7.986114">
        <ele>24.635416</ele>
        <time>2026-03-20T12:31:01.408Z</time>
      </trkpt>
      <trkpt lat="52.681625" lon="7.984246">
        <ele>25.097537</ele>
        <time>2026-03-20T12:31:32.912Z</time>
      </trkpt>
      <trkpt lat="52.681609" lon="7.984126">
        <ele>25.126268</ele>
        <time>2026-03-20T12:31:34.961Z</time>
      </trkpt>
      <trkpt lat="52.681488" lon="7.983521">
        <ele>25.270411</ele>
        <time>2026-03-20T12:31:45.308Z</time>
      </trkpt>
      <trkpt lat="52.681347" lon="7.982979">
        <ele>25.384500</ele>
        <time>2026-03-20T12:31:54.984Z</time>
      </trkpt>
      <trkpt lat="52.681248" lon="7.981155">
        <ele>25.738742</ele>
        <time>2026-03-20T12:32:23.696Z</time>
      </trkpt>
      <trkpt lat="52.681209" lon="7.980433">
        <ele>25.878140</ele>
        <time>2026-03-20T12:32:34.621Z</time>
      </trkpt>
      <trkpt lat="52.679127" lon="7.978210">
        <ele>26.530948</ele>
        <time>2026-03-20T12:33:33.243Z</time>
      </trkpt>
      <trkpt lat="52.678820" lon="7.977911">
        <ele>26.590464</ele>
        <time>2026-03-20T12:33:41.379Z</time>
      </trkpt>
      <trkpt lat="52.677323" lon="7.976448">
        <ele>26.484821</ele>
        <time>2026-03-20T12:34:18.968Z</time>
      </trkpt>
      <trkpt lat="52.677229" lon="7.976260">
        <ele>26.459056</ele>
        <time>2026-03-20T12:34:22.108Z</time>
      </trkpt>
      <trkpt lat="52.676722" lon="7.974763">
        <ele>26.367856</ele>
        <time>2026-03-20T12:34:44.602Z</time>
      </trkpt>
      <trkpt lat="52.676650" lon="7.974407">
        <ele>26.365503</ele>
        <time>2026-03-20T12:34:49.742Z</time>
      </trkpt>
      <trkpt lat="52.676653" lon="7.973990">
        <ele>26.362888</ele>
        <time>2026-03-20T12:34:55.509Z</time>
      </trkpt>
      <trkpt lat="52.676592" lon="7.973971">
        <ele>26.362246</ele>
        <time>2026-03-20T12:34:56.927Z</time>
      </trkpt>
      <trkpt lat="52.676491" lon="7.973941">
        <ele>26.361184</ele>
        <time>2026-03-20T12:34:59.226Z</time>
      </trkpt>
      <trkpt lat="52.676436" lon="7.973926">
        <ele>26.360608</ele>
        <time>2026-03-20T12:35:00.468Z</time>
      </trkpt>
      <trkpt lat="52.676301" lon="7.973948">
        <ele>26.359205</ele>
        <time>2026-03-20T12:35:03.495Z</time>
      </trkpt>
      <trkpt lat="52.676197" lon="7.974033">
        <ele>26.358005</ele>
        <time>2026-03-20T12:35:06.099Z</time>
      </trkpt>
      <trkpt lat="52.676173" lon="7.974128">
        <ele>26.357359</ele>
        <time>2026-03-20T12:35:07.495Z</time>
      </trkpt>
      <trkpt lat="52.676013" lon="7.974717">
        <ele>26.373408</ele>
        <time>2026-03-20T12:35:16.329Z</time>
      </trkpt>
      <trkpt lat="52.675806" lon="7.975337">
        <ele>26.423930</ele>
        <time>2026-03-20T12:35:26.053Z</time>
      </trkpt>
      <trkpt lat="52.675719" lon="7.975543">
        <ele>26.441850</ele>
        <time>2026-03-20T12:35:29.555Z</time>
      </trkpt>
      <trkpt lat="52.675541" lon="7.975854">
        <ele>26.472377</ele>
        <time>2026-03-20T12:35:35.648Z</time>
      </trkpt>
      <trkpt lat="52.674780" lon="7.976832">
        <ele>26.566830</ele>
        <time>2026-03-20T12:35:57.444Z</time>
      </trkpt>
      <trkpt lat="52.673947" lon="7.977903">
        <ele>26.567780</ele>
        <time>2026-03-20T12:36:20.690Z</time>
      </trkpt>
      <trkpt lat="52.672443" lon="7.979860">
        <ele>26.548608</ele>
        <time>2026-03-20T12:37:02.944Z</time>
      </trkpt>
      <trkpt lat="52.672415" lon="7.979901">
        <ele>26.548057</ele>
        <time>2026-03-20T12:37:03.808Z</time>
      </trkpt>
      <trkpt lat="52.671470" lon="7.981128">
        <ele>26.361601</ele>
        <time>2026-03-20T12:37:30.922Z</time>
      </trkpt>
      <trkpt lat="52.671208" lon="7.981541">
        <ele>26.277713</ele>
        <time>2026-03-20T12:37:38.673Z</time>
      </trkpt>
      <trkpt lat="52.671178" lon="7.981518">
        <ele>26.270055</ele>
        <time>2026-03-20T12:37:39.370Z</time>
      </trkpt>
      <trkpt lat="52.668262" lon="7.979956">
        <ele>25.012904</ele>
        <time>2026-03-20T12:38:41.572Z</time>
      </trkpt>
      <trkpt lat="52.667530" lon="7.979551">
        <ele>24.919708</ele>
        <time>2026-03-20T12:38:59.263Z</time>
      </trkpt>
      <trkpt lat="52.667399" lon="7.980007">
        <ele>24.882772</ele>
        <time>2026-03-20T12:39:06.476Z</time>
      </trkpt>
      <trkpt lat="52.667345" lon="7.980334">
        <ele>24.850970</ele>
        <time>2026-03-20T12:39:11.255Z</time>
      </trkpt>
      <trkpt lat="52.667331" lon="7.980558">
        <ele>24.827012</ele>
        <time>2026-03-20T12:39:14.362Z</time>
      </trkpt>
      <trkpt lat="52.667318" lon="7.980733">
        <ele>24.808254</ele>
        <time>2026-03-20T12:39:16.741Z</time>
      </trkpt>
      <trkpt lat="52.667317" lon="7.980808">
        <ele>24.800272</ele>
        <time>2026-03-20T12:39:17.770Z</time>
      </trkpt>
      <trkpt lat="52.667305" lon="7.981274">
        <ele>24.750649</ele>
        <time>2026-03-20T12:39:23.917Z</time>
      </trkpt>
      <trkpt lat="52.667311" lon="7.981340">
        <ele>24.743549</ele>
        <time>2026-03-20T12:39:24.920Z</time>
      </trkpt>
      <trkpt lat="52.667243" lon="7.981356">
        <ele>24.731498</ele>
        <time>2026-03-20T12:39:26.376Z</time>
      </trkpt>
      <trkpt lat="52.667207" lon="7.981417">
        <ele>24.722442</ele>
        <time>2026-03-20T12:39:27.478Z</time>
      </trkpt>
      <trkpt lat="52.667153" lon="7.981507">
        <ele>24.708972</ele>
        <time>2026-03-20T12:39:29.119Z</time>
      </trkpt>
      <trkpt lat="52.667019" lon="7.981776">
        <ele>24.671935</ele>
        <time>2026-03-20T12:39:33.595Z</time>
      </trkpt>
      <trkpt lat="52.666931" lon="7.981990">
        <ele>24.644427</ele>
        <time>2026-03-20T12:39:37.290Z</time>
      </trkpt>
      <trkpt lat="52.666808" lon="7.982448">
        <ele>24.591134</ele>
        <time>2026-03-20T12:39:44.376Z</time>
      </trkpt>
      <trkpt lat="52.666668" lon="7.983011">
        <ele>24.522472</ele>
        <time>2026-03-20T12:39:52.873Z</time>
      </trkpt>
      <trkpt lat="52.666511" lon="7.983642">
        <ele>24.440854</ele>
        <time>2026-03-20T12:40:02.626Z</time>
      </trkpt>
      <trkpt lat="52.666243" lon="7.984427">
        <ele>24.333052</ele>
        <time>2026-03-20T12:40:15.724Z</time>
      </trkpt>
      <trkpt lat="52.665198" lon="7.986923">
        <ele>24.248221</ele>
        <time>2026-03-20T12:41:01.264Z</time>
      </trkpt>
      <trkpt lat="52.664893" lon="7.987462">
        <ele>24.265382</ele>
        <time>2026-03-20T12:41:12.608Z</time>
      </trkpt>
      <trkpt lat="52.664125" lon="7.988514">
        <ele>24.284841</ele>
        <time>2026-03-20T12:41:37.113Z</time>
      </trkpt>
      <trkpt lat="52.663851" lon="7.988857">
        <ele>24.290197</ele>
        <time>2026-03-20T12:41:45.633Z</time>
      </trkpt>
      <trkpt lat="52.663608" lon="7.989451">
        <ele>24.296962</ele>
        <time>2026-03-20T12:41:56.452Z</time>
      </trkpt>
      <trkpt lat="52.663365" lon="7.990148">
        <ele>24.256251</ele>
        <time>2026-03-20T12:42:08.370Z</time>
      </trkpt>
      <trkpt lat="52.663193" lon="7.990517">
        <ele>24.214331</ele>
        <time>2026-03-20T12:42:15.411Z</time>
      </trkpt>
      <trkpt lat="52.662957" lon="7.990831">
        <ele>24.169291</ele>
        <time>2026-03-20T12:42:23.010Z</time>
      </trkpt>
      <trkpt lat="52.659845" lon="7.993244">
        <ele>23.336657</ele>
        <time>2026-03-20T12:43:44.253Z</time>
      </trkpt>
      <trkpt lat="52.659379" lon="7.993476">
        <ele>23.220549</ele>
        <time>2026-03-20T12:43:55.588Z</time>
      </trkpt>
      <trkpt lat="52.658713" lon="7.993618">
        <ele>23.101038</ele>
        <time>2026-03-20T12:44:11.830Z</time>
      </trkpt>
      <trkpt lat="52.658475" lon="7.993761">
        <ele>23.167414</ele>
        <time>2026-03-20T12:44:18.162Z</time>
      </trkpt>
      <trkpt lat="52.658287" lon="7.994024">
        <ele>23.232020</ele>
        <time>2026-03-20T12:44:24.508Z</time>
      </trkpt>
      <trkpt lat="52.658066" lon="7.994435">
        <ele>23.319316</ele>
        <time>2026-03-20T12:44:33.204Z</time>
      </trkpt>
      <trkpt lat="52.656298" lon="7.997953">
        <ele>24.310198</ele>
        <time>2026-03-20T12:45:46.079Z</time>
      </trkpt>
      <trkpt lat="52.656113" lon="7.998151">
        <ele>24.385679</ele>
        <time>2026-03-20T12:45:51.952Z</time>
      </trkpt>
      <trkpt lat="52.655570" lon="7.998563">
        <ele>24.590236</ele>
        <time>2026-03-20T12:46:07.789Z</time>
      </trkpt>
      <trkpt lat="52.652204" lon="8.000890">
        <ele>25.371814</ele>
        <time>2026-03-20T12:47:41.454Z</time>
      </trkpt>
      <trkpt lat="52.651816" lon="8.001135">
        <ele>25.407358</ele>
        <time>2026-03-20T12:47:51.700Z</time>
      </trkpt>
      <trkpt lat="52.650933" lon="8.001589">
        <ele>25.406341</ele>
        <time>2026-03-20T12:48:14.075Z</time>
      </trkpt>
      <trkpt lat="52.650435" lon="8.001892">
        <ele>25.366845</ele>
        <time>2026-03-20T12:48:26.893Z</time>
      </trkpt>
      <trkpt lat="52.650381" lon="8.001932">
        <ele>25.362440</ele>
        <time>2026-03-20T12:48:28.325Z</time>
      </trkpt>
      <trkpt lat="52.649846" lon="8.002330">
        <ele>25.318769</ele>
        <time>2026-03-20T12:48:42.643Z</time>
      </trkpt>
      <trkpt lat="52.650381" lon="8.001932">
        <ele>25.371058</ele>
        <time>2026-03-20T12:48:57.100Z</time>
      </trkpt>
      <trkpt lat="52.649846" lon="8.002330">
        <ele>25.448157</ele>
        <time>2026-03-20T12:49:12.014Z</time>
      </trkpt>
      <trkpt lat="52.649602" lon="8.002511">
        <ele>25.483303</ele>
        <time>2026-03-20T12:49:18.816Z</time>
      </trkpt>
      <trkpt lat="52.649576" lon="8.002403">
        <ele>25.492562</ele>
        <time>2026-03-20T12:49:20.455Z</time>
      </trkpt>
      <trkpt lat="52.649479" lon="8.002023">
        <ele>25.525415</ele>
        <time>2026-03-20T12:49:26.249Z</time>
      </trkpt>
      <trkpt lat="52.649450" lon="8.001952">
        <ele>25.532236</ele>
        <time>2026-03-20T12:49:27.465Z</time>
      </trkpt>
      <trkpt lat="52.649093" lon="8.001592">
        <ele>25.645449</ele>
        <time>2026-03-20T12:49:37.319Z</time>
      </trkpt>
      <trkpt lat="52.648089" lon="8.000282">
        <ele>26.051665</ele>
        <time>2026-03-20T12:50:07.628Z</time>
      </trkpt>
      <trkpt lat="52.646881" lon="7.998891">
        <ele>26.311077</ele>
        <time>2026-03-20T12:50:41.743Z</time>
      </trkpt>
      <trkpt lat="52.645833" lon="7.997402">
        <ele>26.303965</ele>
        <time>2026-03-20T12:51:12.405Z</time>
      </trkpt>
      <trkpt lat="52.645706" lon="7.997125">
        <ele>26.282176</ele>
        <time>2026-03-20T12:51:16.941Z</time>
      </trkpt>
      <trkpt lat="52.645288" lon="7.995922">
        <ele>26.191142</ele>
        <time>2026-03-20T12:51:34.961Z</time>
      </trkpt>
      <trkpt lat="52.645246" lon="7.995743">
        <ele>26.174704</ele>
        <time>2026-03-20T12:51:37.427Z</time>
      </trkpt>
      <trkpt lat="52.645290" lon="7.994587">
        <ele>26.075500</ele>
        <time>2026-03-20T12:51:52.462Z</time>
      </trkpt>
      <trkpt lat="52.645193" lon="7.994547">
        <ele>26.061386</ele>
        <time>2026-03-20T12:51:54.619Z</time>
      </trkpt>
      <trkpt lat="52.643755" lon="7.993352">
        <ele>26.058755</ele>
        <time>2026-03-20T12:52:30.308Z</time>
      </trkpt>
      <trkpt lat="52.643558" lon="7.993221">
        <ele>26.085731</ele>
        <time>2026-03-20T12:52:35.217Z</time>
      </trkpt>
      <trkpt lat="52.641585" lon="7.992283">
        <ele>26.298120</ele>
        <time>2026-03-20T12:53:22.781Z</time>
      </trkpt>
      <trkpt lat="52.640967" lon="7.991986">
        <ele>26.353357</ele>
        <time>2026-03-20T12:53:36.518Z</time>
      </trkpt>
      <trkpt lat="52.640941" lon="7.991803">
        <ele>26.361602</ele>
        <time>2026-03-20T12:53:38.940Z</time>
      </trkpt>
      <trkpt lat="52.640896" lon="7.990451">
        <ele>26.420997</ele>
        <time>2026-03-20T12:53:56.688Z</time>
      </trkpt>
      <trkpt lat="52.640699" lon="7.989459">
        <ele>26.466782</ele>
        <time>2026-03-20T12:54:12.069Z</time>
      </trkpt>
      <trkpt lat="52.640364" lon="7.987954">
        <ele>26.837324</ele>
        <time>2026-03-20T12:54:35.204Z</time>
      </trkpt>
      <trkpt lat="52.640358" lon="7.987889">
        <ele>26.853614</ele>
        <time>2026-03-20T12:54:36.118Z</time>
      </trkpt>
      <trkpt lat="52.639959" lon="7.987698">
        <ele>27.023260</ele>
        <time>2026-03-20T12:54:45.443Z</time>
      </trkpt>
      <trkpt lat="52.639104" lon="7.987160">
        <ele>27.693626</ele>
        <time>2026-03-20T12:55:08.169Z</time>
      </trkpt>
      <trkpt lat="52.638911" lon="7.986960">
        <ele>27.932039</ele>
        <time>2026-03-20T12:55:14.432Z</time>
      </trkpt>
      <trkpt lat="52.638681" lon="7.986624">
        <ele>28.253459</ele>
        <time>2026-03-20T12:55:23.022Z</time>
      </trkpt>
      <trkpt lat="52.638250" lon="7.985844">
        <ele>28.922892</ele>
        <time>2026-03-20T12:55:40.949Z</time>
      </trkpt>
      <trkpt lat="52.638171" lon="7.985784">
        <ele>29.013856</ele>
        <time>2026-03-20T12:55:43.364Z</time>
      </trkpt>
      <trkpt lat="52.638122" lon="7.985747">
        <ele>29.070220</ele>
        <time>2026-03-20T12:55:44.817Z</time>
      </trkpt>
      <trkpt lat="52.637892" lon="7.985722">
        <ele>29.052753</ele>
        <time>2026-03-20T12:55:50.806Z</time>
      </trkpt>
      <trkpt lat="52.637575" lon="7.985783">
        <ele>29.000441</ele>
        <time>2026-03-20T12:55:58.219Z</time>
      </trkpt>
      <trkpt lat="52.636835" lon="7.986227">
        <ele>28.871357</ele>
        <time>2026-03-20T12:56:14.258Z</time>
      </trkpt>
      <trkpt lat="52.636314" lon="7.986616">
        <ele>28.734380</ele>
        <time>2026-03-20T12:56:25.775Z</time>
      </trkpt>
      <trkpt lat="52.636136" lon="7.986592">
        <ele>28.622752</ele>
        <time>2026-03-20T12:56:29.317Z</time>
      </trkpt>
      <trkpt lat="52.636011" lon="7.986597">
        <ele>28.544600</ele>
        <time>2026-03-20T12:56:31.781Z</time>
      </trkpt>
      <trkpt lat="52.635968" lon="7.986653">
        <ele>28.510343</ele>
        <time>2026-03-20T12:56:32.846Z</time>
      </trkpt>
      <trkpt lat="52.635811" lon="7.986945">
        <ele>28.362364</ele>
        <time>2026-03-20T12:56:37.501Z</time>
      </trkpt>
      <trkpt lat="52.635575" lon="7.987205">
        <ele>28.184924</ele>
        <time>2026-03-20T12:56:43.139Z</time>
      </trkpt>
      <trkpt lat="52.635081" lon="7.987747">
        <ele>27.813972</ele>
        <time>2026-03-20T12:56:55.325Z</time>
      </trkpt>
      <trkpt lat="52.635003" lon="7.987838">
        <ele>27.754236</ele>
        <time>2026-03-20T12:56:57.376Z</time>
      </trkpt>
      <trkpt lat="52.634263" lon="7.988652">
        <ele>27.345321</ele>
        <time>2026-03-20T12:57:15.620Z</time>
      </trkpt>
      <trkpt lat="52.632757" lon="7.990272">
        <ele>26.872988</ele>
        <time>2026-03-20T12:57:53.229Z</time>
      </trkpt>
      <trkpt lat="52.632726" lon="7.990297">
        <ele>26.871925</ele>
        <time>2026-03-20T12:57:53.958Z</time>
      </trkpt>
      <trkpt lat="52.630733" lon="7.991387">
        <ele>27.240136</ele>
        <time>2026-03-20T12:58:42.575Z</time>
      </trkpt>
      <trkpt lat="52.630100" lon="7.991433">
        <ele>27.472562</ele>
        <time>2026-03-20T12:58:58.524Z</time>
      </trkpt>
      <trkpt lat="52.629198" lon="7.991612">
        <ele>27.490328</ele>
        <time>2026-03-20T12:59:20.037Z</time>
      </trkpt>
      <trkpt lat="52.628641" lon="7.991567">
        <ele>27.483464</ele>
        <time>2026-03-20T12:59:31.913Z</time>
      </trkpt>
      <trkpt lat="52.627093" lon="7.991445">
        <ele>26.877010</ele>
        <time>2026-03-20T13:00:03.738Z</time>
      </trkpt>
      <trkpt lat="52.626263" lon="7.991785">
        <ele>26.501283</ele>
        <time>2026-03-20T13:00:21.002Z</time>
      </trkpt>
      <trkpt lat="52.625724" lon="7.992359">
        <ele>26.406919</ele>
        <time>2026-03-20T13:00:34.250Z</time>
      </trkpt>
      <trkpt lat="52.625594" lon="7.992547">
        <ele>26.381486</ele>
        <time>2026-03-20T13:00:37.864Z</time>
      </trkpt>
      <trkpt lat="52.623548" lon="7.996147">
        <ele>26.905352</ele>
        <time>2026-03-20T13:01:48.143Z</time>
      </trkpt>
      <trkpt lat="52.623497" lon="7.996237">
        <ele>26.914364</ele>
        <time>2026-03-20T13:01:49.961Z</time>
      </trkpt>
      <trkpt lat="52.623052" lon="7.997002">
        <ele>26.991920</ele>
        <time>2026-03-20T13:02:05.109Z</time>
      </trkpt>
      <trkpt lat="52.622915" lon="7.997282">
        <ele>27.018244</ele>
        <time>2026-03-20T13:02:10.087Z</time>
      </trkpt>
      <trkpt lat="52.622750" lon="7.997419">
        <ele>27.040524</ele>
        <time>2026-03-20T13:02:14.215Z</time>
      </trkpt>
      <trkpt lat="52.620585" lon="7.997311">
        <ele>26.291931</ele>
        <time>2026-03-20T13:02:58.805Z</time>
      </trkpt>
      <trkpt lat="52.619058" lon="7.997231">
        <ele>26.080834</ele>
        <time>2026-03-20T13:03:31.672Z</time>
      </trkpt>
      <trkpt lat="52.618919" lon="7.997176">
        <ele>26.061082</ele>
        <time>2026-03-20T13:03:34.975Z</time>
      </trkpt>
      <trkpt lat="52.616753" lon="7.995353">
        <ele>26.768145</ele>
        <time>2026-03-20T13:04:34.054Z</time>
      </trkpt>
      <trkpt lat="52.614439" lon="7.993407">
        <ele>26.054583</ele>
        <time>2026-03-20T13:05:27.443Z</time>
      </trkpt>
      <trkpt lat="52.612055" lon="7.991431">
        <ele>25.863904</ele>
        <time>2026-03-20T13:06:26.226Z</time>
      </trkpt>
      <trkpt lat="52.608312" lon="7.988231">
        <ele>26.733665</ele>
        <time>2026-03-20T13:08:04.539Z</time>
      </trkpt>
      <trkpt lat="52.608160" lon="7.987885">
        <ele>26.768079</ele>
        <time>2026-03-20T13:08:10.289Z</time>
      </trkpt>
      <trkpt lat="52.606140" lon="7.989097">
        <ele>26.763456</ele>
        <time>2026-03-20T13:08:57.021Z</time>
      </trkpt>
      <trkpt lat="52.605882" lon="7.989260">
        <ele>26.850711</ele>
        <time>2026-03-20T13:09:03.679Z</time>
      </trkpt>
      <trkpt lat="52.605720" lon="7.989344">
        <ele>26.934536</ele>
        <time>2026-03-20T13:09:07.880Z</time>
      </trkpt>
      <trkpt lat="52.604681" lon="7.989984">
        <ele>27.482030</ele>
        <time>2026-03-20T13:09:35.357Z</time>
      </trkpt>
      <trkpt lat="52.604173" lon="7.990299">
        <ele>27.734240</ele>
        <time>2026-03-20T13:09:48.579Z</time>
      </trkpt>
      <trkpt lat="52.603925" lon="7.990459">
        <ele>27.845510</ele>
        <time>2026-03-20T13:09:54.910Z</time>
      </trkpt>
      <trkpt lat="52.603898" lon="7.990628">
        <ele>27.889845</ele>
        <time>2026-03-20T13:09:57.417Z</time>
      </trkpt>
      <trkpt lat="52.602544" lon="7.994449">
        <ele>28.779387</ele>
        <time>2026-03-20T13:11:01.512Z</time>
      </trkpt>
      <trkpt lat="52.600566" lon="7.999907">
        <ele>28.174668</ele>
        <time>2026-03-20T13:12:24.029Z</time>
      </trkpt>
      <trkpt lat="52.599783" lon="8.002079">
        <ele>28.317165</ele>
        <time>2026-03-20T13:12:58.601Z</time>
      </trkpt>
      <trkpt lat="52.598698" lon="8.005102">
        <ele>28.875497</ele>
        <time>2026-03-20T13:13:49.191Z</time>
      </trkpt>
      <trkpt lat="52.596980" lon="8.009904">
        <ele>28.481564</ele>
        <time>2026-03-20T13:15:01.940Z</time>
      </trkpt>
      <trkpt lat="52.596419" lon="8.011428">
        <ele>28.602019</ele>
        <time>2026-03-20T13:15:26.689Z</time>
      </trkpt>
      <trkpt lat="52.594797" lon="8.016026">
        <ele>29.192930</ele>
        <time>2026-03-20T13:16:42.057Z</time>
      </trkpt>
      <trkpt lat="52.594744" lon="8.016106">
        <ele>29.186293</ele>
        <time>2026-03-20T13:16:43.674Z</time>
      </trkpt>
      <trkpt lat="52.593464" lon="8.018273">
        <ele>29.065416</ele>
        <time>2026-03-20T13:17:22.731Z</time>
      </trkpt>
      <trkpt lat="52.593321" lon="8.018418">
        <ele>29.063213</ele>
        <time>2026-03-20T13:17:26.330Z</time>
      </trkpt>
      <trkpt lat="52.588864" lon="8.018175">
        <ele>29.177233</ele>
        <time>2026-03-20T13:19:06.134Z</time>
      </trkpt>
      <trkpt lat="52.588448" lon="8.018054">
        <ele>29.318293</ele>
        <time>2026-03-20T13:19:16.078Z</time>
      </trkpt>
      <trkpt lat="52.587833" lon="8.017727">
        <ele>29.624642</ele>
        <time>2026-03-20T13:19:31.661Z</time>
      </trkpt>
      <trkpt lat="52.587547" lon="8.017646">
        <ele>29.762201</ele>
        <time>2026-03-20T13:19:38.817Z</time>
      </trkpt>
      <trkpt lat="52.587372" lon="8.017668">
        <ele>29.845394</ele>
        <time>2026-03-20T13:19:43.202Z</time>
      </trkpt>
      <trkpt lat="52.587092" lon="8.017774">
        <ele>29.981582</ele>
        <time>2026-03-20T13:19:50.347Z</time>
      </trkpt>
      <trkpt lat="52.587062" lon="8.017800">
        <ele>29.997653</ele>
        <time>2026-03-20T13:19:51.200Z</time>
      </trkpt>
      <trkpt lat="52.586864" lon="8.017968">
        <ele>30.106603</ele>
        <time>2026-03-20T13:19:56.687Z</time>
      </trkpt>
      <trkpt lat="52.586694" lon="8.018195">
        <ele>30.216254</ele>
        <time>2026-03-20T13:20:02.044Z</time>
      </trkpt>
      <trkpt lat="52.586408" lon="8.018474">
        <ele>30.382783</ele>
        <time>2026-03-20T13:20:10.228Z</time>
      </trkpt>
      <trkpt lat="52.586280" lon="8.018661">
        <ele>30.468511</ele>
        <time>2026-03-20T13:20:14.404Z</time>
      </trkpt>
      <trkpt lat="52.586211" lon="8.018859">
        <ele>30.537977</ele>
        <time>2026-03-20T13:20:17.804Z</time>
      </trkpt>
      <trkpt lat="52.586138" lon="8.018941">
        <ele>30.582247</ele>
        <time>2026-03-20T13:20:19.953Z</time>
      </trkpt>
      <trkpt lat="52.586052" lon="8.019048">
        <ele>30.636247</ele>
        <time>2026-03-20T13:20:22.587Z</time>
      </trkpt>
      <trkpt lat="52.585937" lon="8.019125">
        <ele>30.698434</ele>
        <time>2026-03-20T13:20:25.603Z</time>
      </trkpt>
      <trkpt lat="52.583871" lon="8.020263">
        <ele>31.445521</ele>
        <time>2026-03-20T13:21:17.078Z</time>
      </trkpt>
      <trkpt lat="52.583682" lon="8.020405">
        <ele>31.462326</ele>
        <time>2026-03-20T13:21:21.784Z</time>
      </trkpt>
      <trkpt lat="52.583544" lon="8.020601">
        <ele>31.430865</ele>
        <time>2026-03-20T13:21:25.870Z</time>
      </trkpt>
      <trkpt lat="52.583494" lon="8.020701">
        <ele>31.417284</ele>
        <time>2026-03-20T13:21:27.618Z</time>
      </trkpt>
      <trkpt lat="52.583433" lon="8.020969">
        <ele>31.387272</ele>
        <time>2026-03-20T13:21:31.431Z</time>
      </trkpt>
      <trkpt lat="52.583429" lon="8.021218">
        <ele>31.361150</ele>
        <time>2026-03-20T13:21:34.711Z</time>
      </trkpt>
      <trkpt lat="52.583497" lon="8.021568">
        <ele>31.322614</ele>
        <time>2026-03-20T13:21:39.469Z</time>
      </trkpt>
      <trkpt lat="52.584370" lon="8.024320">
        <ele>30.911323</ele>
        <time>2026-03-20T13:22:18.863Z</time>
      </trkpt>
      <trkpt lat="52.584453" lon="8.024651">
        <ele>30.854983</ele>
        <time>2026-03-20T13:22:23.630Z</time>
      </trkpt>
      <trkpt lat="52.584520" lon="8.025111">
        <ele>30.780557</ele>
        <time>2026-03-20T13:22:29.980Z</time>
      </trkpt>
      <trkpt lat="52.584549" lon="8.025872">
        <ele>30.692729</ele>
        <time>2026-03-20T13:22:40.353Z</time>
      </trkpt>
      <trkpt lat="52.584817" lon="8.033691">
        <ele>30.534163</ele>
        <time>2026-03-20T13:24:24.976Z</time>
      </trkpt>
      <trkpt lat="52.584866" lon="8.034816">
        <ele>30.547836</ele>
        <time>2026-03-20T13:24:40.994Z</time>
      </trkpt>
      <trkpt lat="52.584927" lon="8.035254">
        <ele>30.541920</ele>
        <time>2026-03-20T13:24:47.312Z</time>
      </trkpt>
      <trkpt lat="52.585045" lon="8.035623">
        <ele>30.536430</ele>
        <time>2026-03-20T13:24:53.103Z</time>
      </trkpt>
      <trkpt lat="52.585189" lon="8.035845">
        <ele>30.532155</ele>
        <time>2026-03-20T13:24:57.586Z</time>
      </trkpt>
      <trkpt lat="52.587674" lon="8.038673">
        <ele>29.913944</ele>
        <time>2026-03-20T13:26:01.187Z</time>
      </trkpt>
      <trkpt lat="52.587762" lon="8.038836">
        <ele>29.902307</ele>
        <time>2026-03-20T13:26:04.184Z</time>
      </trkpt>
      <trkpt lat="52.588387" lon="8.040721">
        <ele>29.787707</ele>
        <time>2026-03-20T13:26:33.415Z</time>
      </trkpt>
      <trkpt lat="52.588592" lon="8.041366">
        <ele>29.757083</ele>
        <time>2026-03-20T13:26:43.115Z</time>
      </trkpt>
      <trkpt lat="52.588620" lon="8.041495">
        <ele>29.751335</ele>
        <time>2026-03-20T13:26:44.919Z</time>
      </trkpt>
      <trkpt lat="52.588634" lon="8.041558">
        <ele>29.748519</ele>
        <time>2026-03-20T13:26:45.795Z</time>
      </trkpt>
      <trkpt lat="52.588690" lon="8.041915">
        <ele>29.733046</ele>
        <time>2026-03-20T13:26:50.587Z</time>
      </trkpt>
      <trkpt lat="52.589362" lon="8.046295">
        <ele>29.661339</ele>
        <time>2026-03-20T13:27:51.041Z</time>
      </trkpt>
      <trkpt lat="52.589720" lon="8.048581">
        <ele>29.911918</ele>
        <time>2026-03-20T13:28:24.207Z</time>
      </trkpt>
      <trkpt lat="52.589975" lon="8.050247">
        <ele>30.205796</ele>
        <time>2026-03-20T13:28:48.394Z</time>
      </trkpt>
      <trkpt lat="52.590015" lon="8.050789">
        <ele>30.322119</ele>
        <time>2026-03-20T13:28:56.312Z</time>
      </trkpt>
      <trkpt lat="52.589969" lon="8.051189">
        <ele>30.408853</ele>
        <time>2026-03-20T13:29:02.265Z</time>
      </trkpt>
      <trkpt lat="52.589710" lon="8.052405">
        <ele>30.665840</ele>
        <time>2026-03-20T13:29:21.160Z</time>
      </trkpt>
      <trkpt lat="52.589287" lon="8.054393">
        <ele>30.987021</ele>
        <time>2026-03-20T13:29:50.973Z</time>
      </trkpt>
      <trkpt lat="52.588707" lon="8.057120">
        <ele>31.302863</ele>
        <time>2026-03-20T13:30:30.243Z</time>
      </trkpt>
      <trkpt lat="52.588368" lon="8.058689">
        <ele>31.596927</ele>
        <time>2026-03-20T13:30:55.100Z</time>
      </trkpt>
      <trkpt lat="52.587872" lon="8.061009">
        <ele>32.159302</ele>
        <time>2026-03-20T13:31:29.804Z</time>
      </trkpt>
      <trkpt lat="52.587201" lon="8.064138">
        <ele>32.907597</ele>
        <time>2026-03-20T13:32:18.165Z</time>
      </trkpt>
      <trkpt lat="52.586285" lon="8.068434">
        <ele>33.704623</ele>
        <time>2026-03-20T13:33:21.991Z</time>
      </trkpt>
      <trkpt lat="52.586228" lon="8.068899">
        <ele>33.787163</ele>
        <time>2026-03-20T13:33:29.146Z</time>
      </trkpt>
      <trkpt lat="52.586269" lon="8.069248">
        <ele>33.784443</ele>
        <time>2026-03-20T13:33:34.470Z</time>
      </trkpt>
      <trkpt lat="52.586443" lon="8.070189">
        <ele>33.772990</ele>
        <time>2026-03-20T13:33:48.922Z</time>
      </trkpt>
      <trkpt lat="52.587342" lon="8.074701">
        <ele>33.009176</ele>
        <time>2026-03-20T13:34:48.835Z</time>
      </trkpt>
      <trkpt lat="52.587491" lon="8.074707">
        <ele>32.989702</ele>
        <time>2026-03-20T13:34:52.009Z</time>
      </trkpt>
      <trkpt lat="52.587832" lon="8.074817">
        <ele>32.944299</ele>
        <time>2026-03-20T13:34:59.546Z</time>
      </trkpt>
      <trkpt lat="52.590978" lon="8.075729">
        <ele>32.568889</ele>
        <time>2026-03-20T13:36:09.723Z</time>
      </trkpt>
      <trkpt lat="52.591847" lon="8.076019">
        <ele>32.426378</ele>
        <time>2026-03-20T13:36:28.728Z</time>
      </trkpt>
      <trkpt lat="52.592089" lon="8.076072">
        <ele>32.387140</ele>
        <time>2026-03-20T13:36:34.005Z</time>
      </trkpt>
      <trkpt lat="52.592533" lon="8.076101">
        <ele>32.315722</ele>
        <time>2026-03-20T13:36:43.594Z</time>
      </trkpt>
      <trkpt lat="52.592862" lon="8.076086">
        <ele>32.224599</ele>
        <time>2026-03-20T13:36:50.746Z</time>
      </trkpt>
      <trkpt lat="52.593214" lon="8.075987">
        <ele>32.121074</ele>
        <time>2026-03-20T13:36:58.512Z</time>
      </trkpt>
      <trkpt lat="52.593660" lon="8.076030">
        <ele>31.991555</ele>
        <time>2026-03-20T13:37:08.056Z</time>
      </trkpt>
      <trkpt lat="52.594462" lon="8.076106">
        <ele>31.771668</ele>
        <time>2026-03-20T13:37:24.612Z</time>
      </trkpt>
      <trkpt lat="52.595204" lon="8.076258">
        <ele>31.647967</ele>
        <time>2026-03-20T13:37:40.228Z</time>
      </trkpt>
      <trkpt lat="52.595295" lon="8.076310">
        <ele>31.632031</ele>
        <time>2026-03-20T13:37:42.289Z</time>
      </trkpt>
      <trkpt lat="52.595413" lon="8.076450">
        <ele>31.607968</ele>
        <time>2026-03-20T13:37:45.397Z</time>
      </trkpt>
      <trkpt lat="52.595968" lon="8.077599">
        <ele>31.466709</ele>
        <time>2026-03-20T13:38:05.710Z</time>
      </trkpt>
      <trkpt lat="52.596035" lon="8.077821">
        <ele>31.446841</ele>
        <time>2026-03-20T13:38:09.314Z</time>
      </trkpt>
      <trkpt lat="52.596482" lon="8.079223">
        <ele>31.319935</ele>
        <time>2026-03-20T13:38:30.536Z</time>
      </trkpt>
      <trkpt lat="52.596489" lon="8.079387">
        <ele>31.306758</ele>
        <time>2026-03-20T13:38:32.701Z</time>
      </trkpt>
      <trkpt lat="52.596427" lon="8.079689">
        <ele>31.281209</ele>
        <time>2026-03-20T13:38:36.769Z</time>
      </trkpt>
      <trkpt lat="52.597536" lon="8.081328">
        <ele>30.615872</ele>
        <time>2026-03-20T13:39:06.596Z</time>
      </trkpt>
      <trkpt lat="52.597626" lon="8.081413">
        <ele>30.564324</ele>
        <time>2026-03-20T13:39:08.768Z</time>
      </trkpt>
      <trkpt lat="52.597721" lon="8.081473">
        <ele>30.513772</ele>
        <time>2026-03-20T13:39:10.899Z</time>
      </trkpt>
      <trkpt lat="52.597902" lon="8.081500">
        <ele>30.423480</ele>
        <time>2026-03-20T13:39:14.738Z</time>
      </trkpt>
      <trkpt lat="52.599084" lon="8.081493">
        <ele>30.434938</ele>
        <time>2026-03-20T13:39:41.088Z</time>
      </trkpt>
      <trkpt lat="52.601455" lon="8.080861">
        <ele>30.698610</ele>
        <time>2026-03-20T13:40:36.706Z</time>
      </trkpt>
      <trkpt lat="52.601518" lon="8.080857">
        <ele>30.706639</ele>
        <time>2026-03-20T13:40:38.108Z</time>
      </trkpt>
      <trkpt lat="52.601672" lon="8.080862">
        <ele>30.684133</ele>
        <time>2026-03-20T13:40:41.433Z</time>
      </trkpt>
      <trkpt lat="52.603808" lon="8.081810">
        <ele>29.855814</ele>
        <time>2026-03-20T13:41:26.763Z</time>
      </trkpt>
      <trkpt lat="52.609200" lon="8.084191">
        <ele>28.796452</ele>
        <time>2026-03-20T13:43:27.536Z</time>
      </trkpt>
      <trkpt lat="52.611483" lon="8.085179">
        <ele>28.692410</ele>
        <time>2026-03-20T13:44:18.495Z</time>
      </trkpt>
      <trkpt lat="52.611557" lon="8.085277">
        <ele>28.698731</ele>
        <time>2026-03-20T13:44:20.710Z</time>
      </trkpt>
      <trkpt lat="52.611816" lon="8.085684">
        <ele>28.722564</ele>
        <time>2026-03-20T13:44:29.295Z</time>
      </trkpt>
      <trkpt lat="52.612686" lon="8.087310">
        <ele>29.284192</ele>
        <time>2026-03-20T13:45:02.355Z</time>
      </trkpt>
      <trkpt lat="52.613141" lon="8.088225">
        <ele>29.526769</ele>
        <time>2026-03-20T13:45:19.211Z</time>
      </trkpt>
      <trkpt lat="52.614838" lon="8.091250">
        <ele>28.971414</ele>
        <time>2026-03-20T13:46:11.928Z</time>
      </trkpt>
      <trkpt lat="52.615390" lon="8.092053">
        <ele>28.798907</ele>
        <time>2026-03-20T13:46:27.964Z</time>
      </trkpt>
      <trkpt lat="52.615670" lon="8.092517">
        <ele>28.672696</ele>
        <time>2026-03-20T13:46:36.541Z</time>
      </trkpt>
      <trkpt lat="52.616237" lon="8.094341">
        <ele>28.132148</ele>
        <time>2026-03-20T13:47:02.201Z</time>
      </trkpt>
      <trkpt lat="52.617025" lon="8.097435">
        <ele>27.139915</ele>
        <time>2026-03-20T13:47:43.624Z</time>
      </trkpt>
      <trkpt lat="52.617106" lon="8.097761">
        <ele>27.073400</ele>
        <time>2026-03-20T13:47:48.211Z</time>
      </trkpt>
      <trkpt lat="52.617245" lon="8.098381">
        <ele>27.127673</ele>
        <time>2026-03-20T13:47:56.948Z</time>
      </trkpt>
      <trkpt lat="52.617393" lon="8.099398">
        <ele>27.213553</ele>
        <time>2026-03-20T13:48:11.266Z</time>
      </trkpt>
      <trkpt lat="52.617496" lon="8.100164">
        <ele>27.277980</ele>
        <time>2026-03-20T13:48:22.563Z</time>
      </trkpt>
      <trkpt lat="52.617527" lon="8.100859">
        <ele>27.460608</ele>
        <time>2026-03-20T13:48:32.825Z</time>
      </trkpt>
      <trkpt lat="52.617553" lon="8.102876">
        <ele>28.392360</ele>
        <time>2026-03-20T13:49:04.523Z</time>
      </trkpt>
      <trkpt lat="52.617615" lon="8.103331">
        <ele>28.607727</ele>
        <time>2026-03-20T13:49:11.799Z</time>
      </trkpt>
      <trkpt lat="52.617868" lon="8.103898">
        <ele>28.688811</ele>
        <time>2026-03-20T13:49:22.294Z</time>
      </trkpt>
      <trkpt lat="52.617964" lon="8.104114">
        <ele>28.694837</ele>
        <time>2026-03-20T13:49:26.147Z</time>
      </trkpt>
      <trkpt lat="52.618061" lon="8.104333">
        <ele>28.700940</ele>
        <time>2026-03-20T13:49:29.937Z</time>
      </trkpt>
      <trkpt lat="52.619062" lon="8.106711">
        <ele>28.637415</ele>
        <time>2026-03-20T13:50:07.265Z</time>
      </trkpt>
      <trkpt lat="52.619415" lon="8.107514">
        <ele>28.535290</ele>
        <time>2026-03-20T13:50:20.408Z</time>
      </trkpt>
      <trkpt lat="52.619621" lon="8.107902">
        <ele>28.482195</ele>
        <time>2026-03-20T13:50:27.203Z</time>
      </trkpt>
      <trkpt lat="52.620580" lon="8.108841">
        <ele>28.505736</ele>
        <time>2026-03-20T13:50:51.558Z</time>
      </trkpt>
      <trkpt lat="52.620677" lon="8.109024">
        <ele>28.517463</ele>
        <time>2026-03-20T13:50:54.790Z</time>
      </trkpt>
      <trkpt lat="52.620720" lon="8.109175">
        <ele>28.525514</ele>
        <time>2026-03-20T13:50:57.029Z</time>
      </trkpt>
      <trkpt lat="52.620815" lon="8.110236">
        <ele>28.577282</ele>
        <time>2026-03-20T13:51:12.288Z</time>
      </trkpt>
      <trkpt lat="52.620882" lon="8.111415">
        <ele>28.790124</ele>
        <time>2026-03-20T13:51:29.971Z</time>
      </trkpt>
      <trkpt lat="52.620853" lon="8.111577">
        <ele>28.821953</ele>
        <time>2026-03-20T13:51:32.451Z</time>
      </trkpt>
      <trkpt lat="52.620811" lon="8.111766">
        <ele>28.859882</ele>
        <time>2026-03-20T13:51:35.350Z</time>
      </trkpt>
      <trkpt lat="52.620726" lon="8.111967">
        <ele>28.906046</ele>
        <time>2026-03-20T13:51:38.855Z</time>
      </trkpt>
      <trkpt lat="52.620268" lon="8.113051">
        <ele>29.138074</ele>
        <time>2026-03-20T13:51:57.031Z</time>
      </trkpt>
      <trkpt lat="52.620205" lon="8.113331">
        <ele>29.134125</ele>
        <time>2026-03-20T13:52:00.998Z</time>
      </trkpt>
      <trkpt lat="52.620168" lon="8.113487">
        <ele>29.131910</ele>
        <time>2026-03-20T13:52:03.217Z</time>
      </trkpt>
      <trkpt lat="52.620145" lon="8.113797">
        <ele>29.127780</ele>
        <time>2026-03-20T13:52:07.303Z</time>
      </trkpt>
      <trkpt lat="52.620103" lon="8.115283">
        <ele>29.108108</ele>
        <time>2026-03-20T13:52:27.367Z</time>
      </trkpt>
      <trkpt lat="52.620048" lon="8.115323">
        <ele>29.106798</ele>
        <time>2026-03-20T13:52:28.769Z</time>
      </trkpt>
      <trkpt lat="52.619973" lon="8.115451">
        <ele>29.104446</ele>
        <time>2026-03-20T13:52:31.292Z</time>
      </trkpt>
      <trkpt lat="52.619932" lon="8.115595">
        <ele>29.102342</ele>
        <time>2026-03-20T13:52:33.529Z</time>
      </trkpt>
      <trkpt lat="52.619728" lon="8.116739">
        <ele>29.087043</ele>
        <time>2026-03-20T13:52:50.245Z</time>
      </trkpt>
      <trkpt lat="52.619548" lon="8.117565">
        <ele>29.075842</ele>
        <time>2026-03-20T13:53:02.645Z</time>
      </trkpt>
      <trkpt lat="52.619515" lon="8.117802">
        <ele>29.072739</ele>
        <time>2026-03-20T13:53:06.075Z</time>
      </trkpt>
      <trkpt lat="52.619512" lon="8.118353">
        <ele>29.065706</ele>
        <time>2026-03-20T13:53:13.791Z</time>
      </trkpt>
      <trkpt lat="52.619560" lon="8.119624">
        <ele>28.992622</ele>
        <time>2026-03-20T13:53:31.429Z</time>
      </trkpt>
      <trkpt lat="52.619558" lon="8.120248">
        <ele>28.949116</ele>
        <time>2026-03-20T13:53:40.091Z</time>
      </trkpt>
      <trkpt lat="52.621090" lon="8.121445">
        <ele>28.859534</ele>
        <time>2026-03-20T13:54:16.571Z</time>
      </trkpt>
      <trkpt lat="52.621403" lon="8.121648">
        <ele>28.861023</ele>
        <time>2026-03-20T13:54:23.943Z</time>
      </trkpt>
      <trkpt lat="52.623174" lon="8.122590">
        <ele>29.353114</ele>
        <time>2026-03-20T13:55:07.329Z</time>
      </trkpt>
      <trkpt lat="52.623805" lon="8.122981">
        <ele>29.566217</ele>
        <time>2026-03-20T13:55:24.434Z</time>
      </trkpt>
      <trkpt lat="52.624725" lon="8.123607">
        <ele>29.661665</ele>
        <time>2026-03-20T13:55:48.247Z</time>
      </trkpt>
      <trkpt lat="52.625187" lon="8.123885">
        <ele>29.708829</ele>
        <time>2026-03-20T13:55:58.433Z</time>
      </trkpt>
      <trkpt lat="52.625400" lon="8.123973">
        <ele>29.701606</ele>
        <time>2026-03-20T13:56:02.851Z</time>
      </trkpt>
      <trkpt lat="52.626202" lon="8.124174">
        <ele>29.421409</ele>
        <time>2026-03-20T13:56:19.076Z</time>
      </trkpt>
      <trkpt lat="52.628077" lon="8.124613">
        <ele>29.048087</ele>
        <time>2026-03-20T13:57:00.311Z</time>
      </trkpt>
      <trkpt lat="52.628633" lon="8.124659">
        <ele>29.016880</ele>
        <time>2026-03-20T13:57:12.810Z</time>
      </trkpt>
      <trkpt lat="52.628627" lon="8.124793">
        <ele>29.012308</ele>
        <time>2026-03-20T13:57:14.622Z</time>
      </trkpt>
      <trkpt lat="52.628621" lon="8.124905">
        <ele>29.008483</ele>
        <time>2026-03-20T13:57:16.141Z</time>
      </trkpt>
      <trkpt lat="52.628719" lon="8.124940">
        <ele>29.002862</ele>
        <time>2026-03-20T13:57:18.353Z</time>
      </trkpt>
      <trkpt lat="52.628825" lon="8.125068">
        <ele>29.004505</ele>
        <time>2026-03-20T13:57:21.289Z</time>
      </trkpt>
      <trkpt lat="52.628926" lon="8.125503">
        <ele>29.011801</ele>
        <time>2026-03-20T13:57:27.544Z</time>
      </trkpt>
      <trkpt lat="52.628947" lon="8.125707">
        <ele>29.015042</ele>
        <time>2026-03-20T13:57:30.326Z</time>
      </trkpt>
      <trkpt lat="52.629396" lon="8.130031">
        <ele>29.028344</ele>
        <time>2026-03-20T13:58:30.107Z</time>
      </trkpt>
      <trkpt lat="52.629457" lon="8.130610">
        <ele>29.023251</ele>
        <time>2026-03-20T13:58:37.952Z</time>
      </trkpt>
      <trkpt lat="52.629436" lon="8.130737">
        <ele>29.013903</ele>
        <time>2026-03-20T13:58:39.688Z</time>
      </trkpt>
      <trkpt lat="52.629517" lon="8.131489">
        <ele>28.820066</ele>
        <time>2026-03-20T13:58:49.605Z</time>
      </trkpt>
      <trkpt lat="52.629546" lon="8.131571">
        <ele>28.795980</ele>
        <time>2026-03-20T13:58:50.867Z</time>
      </trkpt>
      <trkpt lat="52.629802" lon="8.134190">
        <ele>28.143996</ele>
        <time>2026-03-20T13:59:25.287Z</time>
      </trkpt>
      <trkpt lat="52.629802" lon="8.134350">
        <ele>28.109240</ele>
        <time>2026-03-20T13:59:27.379Z</time>
      </trkpt>
      <trkpt lat="52.629976" lon="8.135301">
        <ele>27.893481</ele>
        <time>2026-03-20T13:59:40.399Z</time>
      </trkpt>
      <trkpt lat="52.630058" lon="8.135579">
        <ele>27.826340</ele>
        <time>2026-03-20T13:59:44.495Z</time>
      </trkpt>
      <trkpt lat="52.630375" lon="8.136400">
        <ele>27.634997</ele>
        <time>2026-03-20T13:59:57.528Z</time>
      </trkpt>
      <trkpt lat="52.630484" lon="8.136583">
        <ele>27.675106</ele>
        <time>2026-03-20T14:00:00.962Z</time>
      </trkpt>
      <trkpt lat="52.631091" lon="8.138009">
        <ele>27.947568</ele>
        <time>2026-03-20T14:00:26.630Z</time>
      </trkpt>
      <trkpt lat="52.631671" lon="8.139340">
        <ele>28.205345</ele>
        <time>2026-03-20T14:00:51.981Z</time>
      </trkpt>
      <trkpt lat="52.631873" lon="8.139715">
        <ele>28.284787</ele>
        <time>2026-03-20T14:00:59.479Z</time>
      </trkpt>
      <trkpt lat="52.631990" lon="8.139865">
        <ele>28.323487</ele>
        <time>2026-03-20T14:01:03.080Z</time>
      </trkpt>
      <trkpt lat="52.632015" lon="8.139976">
        <ele>28.342246</ele>
        <time>2026-03-20T14:01:04.786Z</time>
      </trkpt>
      <trkpt lat="52.632591" lon="8.140679">
        <ele>28.529374</ele>
        <time>2026-03-20T14:01:21.432Z</time>
      </trkpt>
      <trkpt lat="52.633099" lon="8.141284">
        <ele>28.683386</ele>
        <time>2026-03-20T14:01:36.250Z</time>
      </trkpt>
      <trkpt lat="52.633446" lon="8.141632">
        <ele>28.781778</ele>
        <time>2026-03-20T14:01:46.287Z</time>
      </trkpt>
      <trkpt lat="52.633575" lon="8.141840">
        <ele>28.825495</ele>
        <time>2026-03-20T14:01:50.714Z</time>
      </trkpt>
      <trkpt lat="52.633901" lon="8.142615">
        <ele>28.964109</ele>
        <time>2026-03-20T14:02:04.803Z</time>
      </trkpt>
      <trkpt lat="52.634036" lon="8.143029">
        <ele>29.004667</ele>
        <time>2026-03-20T14:02:11.701Z</time>
      </trkpt>
      <trkpt lat="52.634070" lon="8.143135">
        <ele>29.008994</ele>
        <time>2026-03-20T14:02:13.347Z</time>
      </trkpt>
      <trkpt lat="52.634986" lon="8.146505">
        <ele>29.136243</ele>
        <time>2026-03-20T14:03:03.199Z</time>
      </trkpt>
      <trkpt lat="52.635233" lon="8.147437">
        <ele>29.167414</ele>
        <time>2026-03-20T14:03:21.803Z</time>
      </trkpt>
      <trkpt lat="52.635454" lon="8.148342">
        <ele>29.195486</ele>
        <time>2026-03-20T14:03:34.934Z</time>
      </trkpt>
      <trkpt lat="52.635627" lon="8.148941">
        <ele>29.206828</ele>
        <time>2026-03-20T14:03:43.788Z</time>
      </trkpt>
      <trkpt lat="52.635880" lon="8.149636">
        <ele>29.220684</ele>
        <time>2026-03-20T14:03:54.766Z</time>
      </trkpt>
      <trkpt lat="52.636116" lon="8.150152">
        <ele>29.231730</ele>
        <time>2026-03-20T14:04:03.283Z</time>
      </trkpt>
      <trkpt lat="52.636409" lon="8.150744">
        <ele>29.247193</ele>
        <time>2026-03-20T14:04:13.581Z</time>
      </trkpt>
      <trkpt lat="52.637099" lon="8.151822">
        <ele>29.342535</ele>
        <time>2026-03-20T14:04:35.774Z</time>
      </trkpt>
      <trkpt lat="52.637143" lon="8.151948">
        <ele>29.351381</ele>
        <time>2026-03-20T14:04:37.823Z</time>
      </trkpt>
      <trkpt lat="52.637139" lon="8.152174">
        <ele>29.365139</ele>
        <time>2026-03-20T14:04:40.986Z</time>
      </trkpt>
      <trkpt lat="52.637193" lon="8.152275">
        <ele>29.373330</ele>
        <time>2026-03-20T14:04:42.850Z</time>
      </trkpt>
      <trkpt lat="52.637251" lon="8.152343">
        <ele>29.380468</ele>
        <time>2026-03-20T14:04:44.466Z</time>
      </trkpt>
      <trkpt lat="52.636921" lon="8.152958">
        <ele>29.416010</ele>
        <time>2026-03-20T14:04:55.553Z</time>
      </trkpt>
      <trkpt lat="52.636655" lon="8.153531">
        <ele>29.358143</ele>
        <time>2026-03-20T14:05:04.912Z</time>
      </trkpt>
      <trkpt lat="52.636493" lon="8.153972">
        <ele>29.316793</ele>
        <time>2026-03-20T14:05:11.359Z</time>
      </trkpt>
      <trkpt lat="52.636306" lon="8.154550">
        <ele>29.264252</ele>
        <time>2026-03-20T14:05:19.765Z</time>
      </trkpt>
      <trkpt lat="52.636035" lon="8.155667">
        <ele>29.202874</ele>
        <time>2026-03-20T14:05:36.361Z</time>
      </trkpt>
      <trkpt lat="52.636021" lon="8.155820">
        <ele>29.213758</ele>
        <time>2026-03-20T14:05:38.508Z</time>
      </trkpt>
      <trkpt lat="52.636067" lon="8.155945">
        <ele>29.224041</ele>
        <time>2026-03-20T14:05:40.607Z</time>
      </trkpt>
      <trkpt lat="52.636199" lon="8.156799">
        <ele>29.286029</ele>
        <time>2026-03-20T14:05:53.347Z</time>
      </trkpt>
      <trkpt lat="52.636371" lon="8.157594">
        <ele>29.345397</ele>
        <time>2026-03-20T14:06:05.879Z</time>
      </trkpt>
      <trkpt lat="52.636402" lon="8.157866">
        <ele>29.364864</ele>
        <time>2026-03-20T14:06:09.903Z</time>
      </trkpt>
      <trkpt lat="52.636400" lon="8.158063">
        <ele>29.378723</ele>
        <time>2026-03-20T14:06:12.697Z</time>
      </trkpt>
      <trkpt lat="52.636324" lon="8.158608">
        <ele>29.325819</ele>
        <time>2026-03-20T14:06:20.278Z</time>
      </trkpt>
      <trkpt lat="52.636200" lon="8.159154">
        <ele>29.203197</ele>
        <time>2026-03-20T14:06:27.911Z</time>
      </trkpt>
      <trkpt lat="52.636217" lon="8.159338">
        <ele>29.164049</ele>
        <time>2026-03-20T14:06:30.336Z</time>
      </trkpt>
      <trkpt lat="52.636923" lon="8.160810">
        <ele>28.771337</ele>
        <time>2026-03-20T14:06:54.868Z</time>
      </trkpt>
      <trkpt lat="52.637470" lon="8.161679">
        <ele>28.745104</ele>
        <time>2026-03-20T14:07:12.011Z</time>
      </trkpt>
      <trkpt lat="52.637199" lon="8.162122">
        <ele>28.731925</ele>
        <time>2026-03-20T14:07:21.060Z</time>
      </trkpt>
      <trkpt lat="52.636824" lon="8.162849">
        <ele>28.711934</ele>
        <time>2026-03-20T14:07:34.892Z</time>
      </trkpt>
      <trkpt lat="52.636707" lon="8.163153">
        <ele>28.709496</ele>
        <time>2026-03-20T14:07:40.096Z</time>
      </trkpt>
      <trkpt lat="52.636258" lon="8.166090">
        <ele>28.696923</ele>
        <time>2026-03-20T14:08:22.321Z</time>
      </trkpt>
      <trkpt lat="52.635931" lon="8.169028">
        <ele>28.539359</ele>
        <time>2026-03-20T14:09:03.878Z</time>
      </trkpt>
      <trkpt lat="52.635110" lon="8.174609">
        <ele>27.777415</ele>
        <time>2026-03-20T14:10:21.530Z</time>
      </trkpt>
      <trkpt lat="52.634999" lon="8.174775">
        <ele>27.780850</ele>
        <time>2026-03-20T14:10:24.924Z</time>
      </trkpt>
      <trkpt lat="52.635088" lon="8.175033">
        <ele>27.784977</ele>
        <time>2026-03-20T14:10:29.003Z</time>
      </trkpt>
      <trkpt lat="52.637061" lon="8.177191">
        <ele>27.801365</ele>
        <time>2026-03-20T14:11:24.590Z</time>
      </trkpt>
      <trkpt lat="52.637176" lon="8.177328">
        <ele>27.799173</ele>
        <time>2026-03-20T14:11:27.869Z</time>
      </trkpt>
      <trkpt lat="52.638168" lon="8.178421">
        <ele>27.712629</ele>
        <time>2026-03-20T14:11:54.979Z</time>
      </trkpt>
      <trkpt lat="52.638273" lon="8.178478">
        <ele>27.696549</ele>
        <time>2026-03-20T14:11:57.477Z</time>
      </trkpt>
      <trkpt lat="52.640280" lon="8.178861">
        <ele>27.481535</ele>
        <time>2026-03-20T14:12:43.205Z</time>
      </trkpt>
      <trkpt lat="52.641178" lon="8.179032">
        <ele>27.433310</ele>
        <time>2026-03-20T14:13:03.973Z</time>
      </trkpt>
      <trkpt lat="52.641274" lon="8.179020">
        <ele>27.443266</ele>
        <time>2026-03-20T14:13:06.212Z</time>
      </trkpt>
      <trkpt lat="52.641350" lon="8.178976">
        <ele>27.459990</ele>
        <time>2026-03-20T14:13:08.080Z</time>
      </trkpt>
      <trkpt lat="52.642800" lon="8.178098">
        <ele>27.780709</ele>
        <time>2026-03-20T14:13:43.628Z</time>
      </trkpt>
      <trkpt lat="52.643838" lon="8.178142">
        <ele>28.006529</ele>
        <time>2026-03-20T14:14:08.778Z</time>
      </trkpt>
      <trkpt lat="52.644515" lon="8.178286">
        <ele>28.155828</ele>
        <time>2026-03-20T14:14:24.725Z</time>
      </trkpt>
      <trkpt lat="52.644980" lon="8.178488">
        <ele>28.158813</ele>
        <time>2026-03-20T14:14:34.618Z</time>
      </trkpt>
      <trkpt lat="52.645226" lon="8.178672">
        <ele>28.121946</ele>
        <time>2026-03-20T14:14:40.107Z</time>
      </trkpt>
      <trkpt lat="52.645413" lon="8.178897">
        <ele>28.090351</ele>
        <time>2026-03-20T14:14:44.899Z</time>
      </trkpt>
      <trkpt lat="52.645633" lon="8.179314">
        <ele>28.044596</ele>
        <time>2026-03-20T14:14:52.059Z</time>
      </trkpt>
      <trkpt lat="52.645847" lon="8.179649">
        <ele>28.004319</ele>
        <time>2026-03-20T14:14:58.519Z</time>
      </trkpt>
      <trkpt lat="52.646543" lon="8.180317">
        <ele>28.150387</ele>
        <time>2026-03-20T14:15:17.074Z</time>
      </trkpt>
      <trkpt lat="52.646628" lon="8.180454">
        <ele>28.205503</ele>
        <time>2026-03-20T14:15:20.122Z</time>
      </trkpt>
      <trkpt lat="52.646669" lon="8.180640">
        <ele>28.261167</ele>
        <time>2026-03-20T14:15:23.248Z</time>
      </trkpt>
      <trkpt lat="52.646165" lon="8.180830">
        <ele>28.500854</ele>
        <time>2026-03-20T14:15:36.618Z</time>
      </trkpt>
      <trkpt lat="52.645930" lon="8.181029">
        <ele>28.623337</ele>
        <time>2026-03-20T14:15:43.066Z</time>
      </trkpt>
      <trkpt lat="52.645738" lon="8.181246">
        <ele>28.731266</ele>
        <time>2026-03-20T14:15:48.521Z</time>
      </trkpt>
      <trkpt lat="52.645252" lon="8.182023">
        <ele>28.612408</ele>
        <time>2026-03-20T14:16:03.665Z</time>
      </trkpt>
      <trkpt lat="52.645125" lon="8.182397">
        <ele>28.531293</ele>
        <time>2026-03-20T14:16:09.089Z</time>
      </trkpt>
      <trkpt lat="52.645088" lon="8.182598">
        <ele>28.491539</ele>
        <time>2026-03-20T14:16:11.659Z</time>
      </trkpt>
      <trkpt lat="52.645067" lon="8.183086">
        <ele>28.398948</ele>
        <time>2026-03-20T14:16:17.611Z</time>
      </trkpt>
      <trkpt lat="52.645096" lon="8.183292">
        <ele>28.358925</ele>
        <time>2026-03-20T14:16:20.199Z</time>
      </trkpt>
      <trkpt lat="52.645387" lon="8.184309">
        <ele>28.193560</ele>
        <time>2026-03-20T14:16:33.963Z</time>
      </trkpt>
      <trkpt lat="52.646353" lon="8.187531">
        <ele>28.085948</ele>
        <time>2026-03-20T14:17:22.660Z</time>
      </trkpt>
      <trkpt lat="52.646427" lon="8.187935">
        <ele>28.120539</ele>
        <time>2026-03-20T14:17:28.387Z</time>
      </trkpt>
      <trkpt lat="52.646466" lon="8.188396">
        <ele>28.158691</ele>
        <time>2026-03-20T14:17:34.751Z</time>
      </trkpt>
      <trkpt lat="52.646439" lon="8.189065">
        <ele>28.213647</ele>
        <time>2026-03-20T14:17:43.979Z</time>
      </trkpt>
      <trkpt lat="52.646225" lon="8.191699">
        <ele>28.700568</ele>
        <time>2026-03-20T14:18:22.549Z</time>
      </trkpt>
      <trkpt lat="52.646126" lon="8.192192">
        <ele>28.803903</ele>
        <time>2026-03-20T14:18:29.833Z</time>
      </trkpt>
      <trkpt lat="52.645968" lon="8.192622">
        <ele>28.821778</ele>
        <time>2026-03-20T14:18:36.802Z</time>
      </trkpt>
      <trkpt lat="52.646002" lon="8.192636">
        <ele>28.819980</ele>
        <time>2026-03-20T14:18:37.591Z</time>
      </trkpt>
      <trkpt lat="52.646361" lon="8.192784">
        <ele>28.800997</ele>
        <time>2026-03-20T14:18:45.923Z</time>
      </trkpt>
      <trkpt lat="52.646471" lon="8.192882">
        <ele>28.794583</ele>
        <time>2026-03-20T14:18:48.701Z</time>
      </trkpt>
      <trkpt lat="52.647098" lon="8.194503">
        <ele>28.735900</ele>
        <time>2026-03-20T14:19:13.885Z</time>
      </trkpt>
      <trkpt lat="52.648465" lon="8.197012">
        <ele>28.771522</ele>
        <time>2026-03-20T14:19:59.061Z</time>
      </trkpt>
      <trkpt lat="52.648908" lon="8.197942">
        <ele>28.979961</ele>
        <time>2026-03-20T14:20:16.564Z</time>
      </trkpt>
      <trkpt lat="52.649131" lon="8.198403">
        <ele>29.083897</ele>
        <time>2026-03-20T14:20:25.363Z</time>
      </trkpt>
      <trkpt lat="52.649206" lon="8.198472">
        <ele>29.108855</ele>
        <time>2026-03-20T14:20:27.428Z</time>
      </trkpt>
      <trkpt lat="52.649206" lon="8.198569">
        <ele>29.125954</ele>
        <time>2026-03-20T14:20:28.983Z</time>
      </trkpt>
      <trkpt lat="52.649471" lon="8.199431">
        <ele>29.075106</ele>
        <time>2026-03-20T14:20:43.548Z</time>
      </trkpt>
      <trkpt lat="52.649837" lon="8.200401">
        <ele>28.861318</ele>
        <time>2026-03-20T14:20:59.662Z</time>
      </trkpt>
      <trkpt lat="52.650725" lon="8.202618">
        <ele>28.529581</ele>
        <time>2026-03-20T14:21:36.626Z</time>
      </trkpt>
      <trkpt lat="52.650852" lon="8.203025">
        <ele>28.496410</ele>
        <time>2026-03-20T14:21:43.751Z</time>
      </trkpt>
      <trkpt lat="52.650904" lon="8.203207">
        <ele>28.481830</ele>
        <time>2026-03-20T14:21:46.607Z</time>
      </trkpt>
      <trkpt lat="52.650924" lon="8.203316">
        <ele>28.473576</ele>
        <time>2026-03-20T14:21:48.225Z</time>
      </trkpt>
      <trkpt lat="52.651124" lon="8.203974">
        <ele>28.420236</ele>
        <time>2026-03-20T14:21:58.879Z</time>
      </trkpt>
      <trkpt lat="52.651786" lon="8.206753">
        <ele>28.355810</ele>
        <time>2026-03-20T14:22:43.547Z</time>
      </trkpt>
      <trkpt lat="52.651812" lon="8.206800">
        <ele>28.336787</ele>
        <time>2026-03-20T14:22:44.429Z</time>
      </trkpt>
      <trkpt lat="52.651888" lon="8.206920">
        <ele>28.284905</ele>
        <time>2026-03-20T14:22:48.100Z</time>
      </trkpt>
      <trkpt lat="52.652543" lon="8.208434">
        <ele>27.728776</ele>
        <time>2026-03-20T14:23:13.725Z</time>
      </trkpt>
      <trkpt lat="52.652746" lon="8.208933">
        <ele>27.549095</ele>
        <time>2026-03-20T14:23:22.071Z</time>
      </trkpt>
      <trkpt lat="52.652993" lon="8.209539">
        <ele>27.443369</ele>
        <time>2026-03-20T14:23:32.285Z</time>
      </trkpt>
      <trkpt lat="52.653285" lon="8.211000">
        <ele>27.351789</ele>
        <time>2026-03-20T14:23:54.477Z</time>
      </trkpt>
      <trkpt lat="52.653608" lon="8.212241">
        <ele>27.403976</ele>
        <time>2026-03-20T14:24:15.374Z</time>
      </trkpt>
      <trkpt lat="52.654165" lon="8.213693">
        <ele>27.879999</ele>
        <time>2026-03-20T14:24:43.727Z</time>
      </trkpt>
      <trkpt lat="52.654251" lon="8.214048">
        <ele>27.985917</ele>
        <time>2026-03-20T14:24:50.018Z</time>
      </trkpt>
      <trkpt lat="52.654268" lon="8.214172">
        <ele>28.021142</ele>
        <time>2026-03-20T14:24:52.092Z</time>
      </trkpt>
      <trkpt lat="52.654315" lon="8.214549">
        <ele>28.123056</ele>
        <time>2026-03-20T14:24:58.280Z</time>
      </trkpt>
      <trkpt lat="52.654356" lon="8.214881">
        <ele>28.177935</ele>
        <time>2026-03-20T14:25:03.647Z</time>
      </trkpt>
      <trkpt lat="52.654357" lon="8.215024">
        <ele>28.201098</ele>
        <time>2026-03-20T14:25:05.886Z</time>
      </trkpt>
      <trkpt lat="52.654315" lon="8.215406">
        <ele>28.263981</ele>
        <time>2026-03-20T14:25:11.903Z</time>
      </trkpt>
      <trkpt lat="52.654209" lon="8.216364">
        <ele>28.421713</ele>
        <time>2026-03-20T14:25:26.743Z</time>
      </trkpt>
      <trkpt lat="52.654013" lon="8.217079">
        <ele>28.548801</ele>
        <time>2026-03-20T14:25:38.836Z</time>
      </trkpt>
      <trkpt lat="52.653923" lon="8.218423">
        <ele>29.033544</ele>
        <time>2026-03-20T14:26:00.424Z</time>
      </trkpt>
      <trkpt lat="52.654266" lon="8.219528">
        <ele>29.546728</ele>
        <time>2026-03-20T14:26:21.428Z</time>
      </trkpt>
      <trkpt lat="52.654841" lon="8.221039">
        <ele>30.276564</ele>
        <time>2026-03-20T14:26:52.639Z</time>
      </trkpt>
      <trkpt lat="52.655285" lon="8.222419">
        <ele>30.911737</ele>
        <time>2026-03-20T14:27:18.727Z</time>
      </trkpt>
      <trkpt lat="52.655572" lon="8.222085">
        <ele>30.996034</ele>
        <time>2026-03-20T14:27:31.792Z</time>
      </trkpt>
      <trkpt lat="52.655742" lon="8.221941">
        <ele>30.961485</ele>
        <time>2026-03-20T14:27:38.676Z</time>
      </trkpt>
      <trkpt lat="52.655997" lon="8.221909">
        <ele>30.915258</ele>
        <time>2026-03-20T14:27:47.770Z</time>
      </trkpt>
      <trkpt lat="52.656318" lon="8.221869">
        <ele>30.857069</ele>
        <time>2026-03-20T14:27:59.173Z</time>
      </trkpt>
      <trkpt lat="52.656839" lon="8.221745">
        <ele>30.761916</ele>
        <time>2026-03-20T14:28:17.792Z</time>
      </trkpt>
      <trkpt lat="52.657413" lon="8.221575">
        <ele>30.725931</ele>
        <time>2026-03-20T14:28:39.130Z</time>
      </trkpt>
      <trkpt lat="52.657552" lon="8.221496">
        <ele>30.739018</ele>
        <time>2026-03-20T14:28:44.713Z</time>
      </trkpt>
      <trkpt lat="52.658217" lon="8.221323">
        <ele>30.798942</ele>
        <time>2026-03-20T14:29:10.421Z</time>
      </trkpt>
      <trkpt lat="52.658319" lon="8.221281">
        <ele>30.808300</ele>
        <time>2026-03-20T14:29:14.405Z</time>
      </trkpt>
      <trkpt lat="52.658458" lon="8.221166">
        <ele>30.822143</ele>
        <time>2026-03-20T14:29:20.292Z</time>
      </trkpt>
      <trkpt lat="52.659081" lon="8.220610">
        <ele>30.890680</ele>
        <time>2026-03-20T14:29:46.802Z</time>
      </trkpt>
      <trkpt lat="52.659112" lon="8.220507">
        <ele>30.898428</ele>
        <time>2026-03-20T14:29:48.400Z</time>
      </trkpt>
      <trkpt lat="52.659178" lon="8.220433">
        <ele>30.907296</ele>
        <time>2026-03-20T14:29:50.200Z</time>
      </trkpt>
      <trkpt lat="52.659638" lon="8.220139">
        <ele>30.962108</ele>
        <time>2026-03-20T14:30:00.818Z</time>
      </trkpt>
      <trkpt lat="52.660021" lon="8.219985">
        <ele>31.005907</ele>
        <time>2026-03-20T14:30:09.668Z</time>
      </trkpt>
      <trkpt lat="52.660629" lon="8.219777">
        <ele>31.069802</ele>
        <time>2026-03-20T14:30:24.438Z</time>
      </trkpt>
      <trkpt lat="52.660637" lon="8.219829">
        <ele>31.071876</ele>
        <time>2026-03-20T14:30:25.192Z</time>
      </trkpt>
      <trkpt lat="52.661234" lon="8.219685">
        <ele>31.110332</ele>
        <time>2026-03-20T14:30:43.452Z</time>
      </trkpt>
      <trkpt lat="52.661790" lon="8.219524">
        <ele>31.146313</ele>
        <time>2026-03-20T14:31:00.079Z</time>
      </trkpt>
      <trkpt lat="52.661959" lon="8.219447">
        <ele>31.157488</ele>
        <time>2026-03-20T14:31:05.044Z</time>
      </trkpt>
      <trkpt lat="52.662113" lon="8.219445">
        <ele>31.167304</ele>
        <time>2026-03-20T14:31:10.561Z</time>
      </trkpt>
      <trkpt lat="52.662355" lon="8.219797">
        <ele>31.185530</ele>
        <time>2026-03-20T14:31:22.160Z</time>
      </trkpt>
      <trkpt lat="52.662557" lon="8.219357">
        <ele>31.202004</ele>
        <time>2026-03-20T14:31:29.439Z</time>
      </trkpt>
      <trkpt lat="52.662821" lon="8.219048">
        <ele>31.217938</ele>
        <time>2026-03-20T14:31:36.763Z</time>
      </trkpt>
      <trkpt lat="52.662998" lon="8.218856">
        <ele>31.228366</ele>
        <time>2026-03-20T14:31:41.662Z</time>
      </trkpt>
      <trkpt lat="52.663041" lon="8.218806">
        <ele>31.230956</ele>
        <time>2026-03-20T14:31:42.895Z</time>
      </trkpt>
      <trkpt lat="52.663084" lon="8.218763">
        <ele>31.233431</ele>
        <time>2026-03-20T14:31:44.062Z</time>
      </trkpt>
      <trkpt lat="52.663129" lon="8.218937">
        <ele>31.239078</ele>
        <time>2026-03-20T14:31:48.408Z</time>
      </trkpt>
      <trkpt lat="52.663353" lon="8.218092">
        <ele>31.264022</ele>
        <time>2026-03-20T14:32:01.195Z</time>
      </trkpt>
      <trkpt lat="52.663444" lon="8.217479">
        <ele>31.183463</ele>
        <time>2026-03-20T14:32:10.103Z</time>
      </trkpt>
      <trkpt lat="52.663658" lon="8.213423">
        <ele>30.936249</ele>
        <time>2026-03-20T14:33:02.084Z</time>
      </trkpt>
      <trkpt lat="52.663830" lon="8.212042">
        <ele>31.032510</ele>
        <time>2026-03-20T14:33:23.089Z</time>
      </trkpt>
      <trkpt lat="52.663909" lon="8.212103">
        <ele>31.078123</ele>
        <time>2026-03-20T14:33:25.354Z</time>
      </trkpt>
      <trkpt lat="52.664949" lon="8.213006">
        <ele>31.692709</ele>
        <time>2026-03-20T14:33:54.605Z</time>
      </trkpt>
      <trkpt lat="52.665183" lon="8.213187">
        <ele>31.827858</ele>
        <time>2026-03-20T14:34:00.534Z</time>
      </trkpt>
      <trkpt lat="52.665715" lon="8.213612">
        <ele>31.871604</ele>
        <time>2026-03-20T14:34:13.697Z</time>
      </trkpt>
      <trkpt lat="52.667114" lon="8.214843">
        <ele>31.707976</ele>
        <time>2026-03-20T14:34:47.945Z</time>
      </trkpt>
      <trkpt lat="52.667789" lon="8.215462">
        <ele>31.562989</ele>
        <time>2026-03-20T14:35:04.856Z</time>
      </trkpt>
      <trkpt lat="52.668408" lon="8.215999">
        <ele>31.431691</ele>
        <time>2026-03-20T14:35:19.733Z</time>
      </trkpt>
      <trkpt lat="52.668512" lon="8.216089">
        <ele>31.410348</ele>
        <time>2026-03-20T14:35:22.230Z</time>
      </trkpt>
      <trkpt lat="52.669074" lon="8.216583">
        <ele>31.331694</ele>
        <time>2026-03-20T14:35:35.927Z</time>
      </trkpt>
      <trkpt lat="52.669324" lon="8.216804">
        <ele>31.296661</ele>
        <time>2026-03-20T14:35:42.063Z</time>
      </trkpt>
      <trkpt lat="52.669598" lon="8.217052">
        <ele>31.258059</ele>
        <time>2026-03-20T14:35:48.808Z</time>
      </trkpt>
      <trkpt lat="52.670018" lon="8.217422">
        <ele>31.199250</ele>
        <time>2026-03-20T14:35:59.212Z</time>
      </trkpt>
      <trkpt lat="52.670388" lon="8.217734">
        <ele>31.189565</ele>
        <time>2026-03-20T14:36:09.133Z</time>
      </trkpt>
      <trkpt lat="52.670933" lon="8.218209">
        <ele>31.189565</ele>
        <time>2026-03-20T14:36:23.923Z</time>
      </trkpt>
      <trkpt lat="52.671065" lon="8.218325">
        <ele>31.189565</ele>
        <time>2026-03-20T14:36:27.542Z</time>
      </trkpt>
      <trkpt lat="52.671407" lon="8.218604">
        <ele>31.189565</ele>
        <time>2026-03-20T14:36:36.731Z</time>
      </trkpt>
      <trkpt lat="52.671491" lon="8.218634">
        <ele>31.189565</ele>
        <time>2026-03-20T14:36:38.796Z</time>
      </trkpt>
      <trkpt lat="52.671399" lon="8.219092">
        <ele>31.189565</ele>
        <time>2026-03-20T14:36:45.927Z</time>
      </trkpt>
      <trkpt lat="52.671333" lon="8.219059">
        <ele>31.189565</ele>
        <time>2026-03-20T14:36:48.037Z</time>
      </trkpt>
      <trkpt lat="52.671256" lon="8.219017">
        <ele>31.189565</ele>
        <time>2026-03-20T14:36:50.541Z</time>
      </trkpt>
    </trkseg>
  </trk>
</gpx>